<?xml version="1.0" encoding="UTF-8" standalone="no" ?>
<gpx xmlns="http://www.topografix.com/GPX/1/1" xmlns:xsi="http://www.w3.org/2001/XMLSchema-instance" xsi:schemaLocation="http://www.topografix.com/GPX/1/1 http://www.topografix.com/GPX/1/1/gpx.xsd" version="1.1" creator="VisuGPX - https://www.visugpx.com">
  <metadata>
    <name>Neslette</name>
    <desc><![CDATA[randonnée trés agréable, avec de trés jolies points de vues.]]></desc>
  </metadata>
  <trk>
    <name><![CDATA[Neslette]]></name>
    <trkseg>
      <trkpt lat="49.93642" lon="1.62968">
        <ele>69</ele>
        <time>2011-10-27T11:42:26.000Z</time>
      </trkpt>
      <trkpt lat="49.93636" lon="1.62978">
        <ele>68</ele>
        <time>2011-10-27T11:42:38.000Z</time>
      </trkpt>
      <trkpt lat="49.93629" lon="1.62985">
        <ele>71</ele>
        <time>2011-10-27T11:42:47.000Z</time>
      </trkpt>
      <trkpt lat="49.93627" lon="1.62991">
        <ele>68</ele>
        <time>2011-10-27T11:42:55.000Z</time>
      </trkpt>
      <trkpt lat="49.93624" lon="1.63005">
        <ele>59</ele>
        <time>2011-10-27T11:43:05.000Z</time>
      </trkpt>
      <trkpt lat="49.93621" lon="1.63013">
        <ele>58</ele>
        <time>2011-10-27T11:43:11.000Z</time>
      </trkpt>
      <trkpt lat="49.93618" lon="1.63021">
        <ele>57</ele>
        <time>2011-10-27T11:43:17.000Z</time>
      </trkpt>
      <trkpt lat="49.93616" lon="1.6303">
        <ele>58</ele>
        <time>2011-10-27T11:43:23.000Z</time>
      </trkpt>
      <trkpt lat="49.93612" lon="1.63039">
        <ele>61</ele>
        <time>2011-10-27T11:43:29.000Z</time>
      </trkpt>
      <trkpt lat="49.93602" lon="1.63064">
        <ele>61</ele>
        <time>2011-10-27T11:43:46.000Z</time>
      </trkpt>
      <trkpt lat="49.93605" lon="1.63071">
        <ele>61</ele>
        <time>2011-10-27T11:43:50.000Z</time>
      </trkpt>
      <trkpt lat="49.93621" lon="1.63094">
        <ele>64</ele>
        <time>2011-10-27T11:44:12.000Z</time>
      </trkpt>
      <trkpt lat="49.93645" lon="1.63121">
        <ele>63</ele>
        <time>2011-10-27T11:44:36.000Z</time>
      </trkpt>
      <trkpt lat="49.93673" lon="1.63142">
        <ele>71</ele>
        <time>2011-10-27T11:45:03.000Z</time>
      </trkpt>
      <trkpt lat="49.93688" lon="1.63149">
        <ele>63</ele>
        <time>2011-10-27T11:45:13.000Z</time>
      </trkpt>
      <trkpt lat="49.93703" lon="1.63154">
        <ele>56</ele>
        <time>2011-10-27T11:45:23.000Z</time>
      </trkpt>
      <trkpt lat="49.93727" lon="1.63157">
        <ele>57</ele>
        <time>2011-10-27T11:45:49.000Z</time>
      </trkpt>
      <trkpt lat="49.93768" lon="1.63165">
        <ele>59</ele>
        <time>2011-10-27T11:46:18.000Z</time>
      </trkpt>
      <trkpt lat="49.93774" lon="1.63166">
        <ele>61</ele>
        <time>2011-10-27T11:46:24.000Z</time>
      </trkpt>
      <trkpt lat="49.93795" lon="1.63176">
        <ele>68</ele>
        <time>2011-10-27T11:46:48.000Z</time>
      </trkpt>
      <trkpt lat="49.93837" lon="1.63199">
        <ele>75</ele>
        <time>2011-10-27T11:47:27.000Z</time>
      </trkpt>
      <trkpt lat="49.93838" lon="1.63199">
        <ele>75</ele>
        <time>2011-10-27T11:47:28.000Z</time>
      </trkpt>
      <trkpt lat="49.93843" lon="1.63199">
        <ele>72</ele>
        <time>2011-10-27T11:47:33.000Z</time>
      </trkpt>
      <trkpt lat="49.93854" lon="1.63194">
        <ele>69</ele>
        <time>2011-10-27T11:47:43.000Z</time>
      </trkpt>
      <trkpt lat="49.93866" lon="1.63187">
        <ele>79</ele>
        <time>2011-10-27T11:47:56.000Z</time>
      </trkpt>
      <trkpt lat="49.93874" lon="1.63175">
        <ele>82</ele>
        <time>2011-10-27T11:48:06.000Z</time>
      </trkpt>
      <trkpt lat="49.93882" lon="1.63176">
        <ele>82</ele>
        <time>2011-10-27T11:48:16.000Z</time>
      </trkpt>
      <trkpt lat="49.9388" lon="1.63183">
        <ele>80</ele>
        <time>2011-10-27T11:48:24.000Z</time>
      </trkpt>
      <trkpt lat="49.93873" lon="1.63192">
        <ele>81</ele>
        <time>2011-10-27T11:48:34.000Z</time>
      </trkpt>
      <trkpt lat="49.93864" lon="1.63208">
        <ele>86</ele>
        <time>2011-10-27T11:48:48.000Z</time>
      </trkpt>
      <trkpt lat="49.93865" lon="1.63216">
        <ele>88</ele>
        <time>2011-10-27T11:48:55.000Z</time>
      </trkpt>
      <trkpt lat="49.9387" lon="1.63219">
        <ele>89</ele>
        <time>2011-10-27T11:49:01.000Z</time>
      </trkpt>
      <trkpt lat="49.93874" lon="1.63224">
        <ele>90</ele>
        <time>2011-10-27T11:49:09.000Z</time>
      </trkpt>
      <trkpt lat="49.93883" lon="1.63229">
        <ele>89</ele>
        <time>2011-10-27T11:49:15.000Z</time>
      </trkpt>
      <trkpt lat="49.93895" lon="1.63237">
        <ele>91</ele>
        <time>2011-10-27T11:49:30.000Z</time>
      </trkpt>
      <trkpt lat="49.93918" lon="1.63249">
        <ele>99</ele>
        <time>2011-10-27T11:50:03.000Z</time>
      </trkpt>
      <trkpt lat="49.93946" lon="1.63268">
        <ele>96</ele>
        <time>2011-10-27T11:50:32.000Z</time>
      </trkpt>
      <trkpt lat="49.93965" lon="1.63273">
        <ele>92</ele>
        <time>2011-10-27T11:50:45.000Z</time>
      </trkpt>
      <trkpt lat="49.93974" lon="1.63268">
        <ele>96</ele>
        <time>2011-10-27T11:50:59.000Z</time>
      </trkpt>
      <trkpt lat="49.94015" lon="1.63276">
        <ele>93</ele>
        <time>2011-10-27T11:51:27.000Z</time>
      </trkpt>
      <trkpt lat="49.94024" lon="1.63274">
        <ele>96</ele>
        <time>2011-10-27T11:51:33.000Z</time>
      </trkpt>
      <trkpt lat="49.94034" lon="1.63277">
        <ele>98</ele>
        <time>2011-10-27T11:51:41.000Z</time>
      </trkpt>
      <trkpt lat="49.94033" lon="1.6328">
        <ele>108</ele>
        <time>2011-10-27T11:51:58.000Z</time>
      </trkpt>
      <trkpt lat="49.94043" lon="1.63292">
        <ele>93</ele>
        <time>2011-10-27T11:52:12.000Z</time>
      </trkpt>
      <trkpt lat="49.94049" lon="1.63301">
        <ele>101</ele>
        <time>2011-10-27T11:52:36.000Z</time>
      </trkpt>
      <trkpt lat="49.94053" lon="1.63306">
        <ele>108</ele>
        <time>2011-10-27T11:52:46.000Z</time>
      </trkpt>
      <trkpt lat="49.94057" lon="1.63314">
        <ele>104</ele>
        <time>2011-10-27T11:53:07.000Z</time>
      </trkpt>
      <trkpt lat="49.94058" lon="1.63326">
        <ele>99</ele>
        <time>2011-10-27T11:53:14.000Z</time>
      </trkpt>
      <trkpt lat="49.94064" lon="1.63326">
        <ele>89</ele>
        <time>2011-10-27T11:53:33.000Z</time>
      </trkpt>
      <trkpt lat="49.9407" lon="1.63328">
        <ele>80</ele>
        <time>2011-10-27T11:54:39.000Z</time>
      </trkpt>
      <trkpt lat="49.94071" lon="1.63329">
        <ele>90</ele>
        <time>2011-10-27T11:56:21.000Z</time>
      </trkpt>
      <trkpt lat="49.94071" lon="1.63335">
        <ele>85</ele>
        <time>2011-10-27T11:56:44.000Z</time>
      </trkpt>
      <trkpt lat="49.94067" lon="1.63333">
        <ele>84</ele>
        <time>2011-10-27T11:56:50.000Z</time>
      </trkpt>
      <trkpt lat="49.94067" lon="1.63325">
        <ele>86</ele>
        <time>2011-10-27T11:56:56.000Z</time>
      </trkpt>
      <trkpt lat="49.94068" lon="1.63317">
        <ele>91</ele>
        <time>2011-10-27T11:57:16.000Z</time>
      </trkpt>
      <trkpt lat="49.94066" lon="1.6331">
        <ele>95</ele>
        <time>2011-10-27T11:57:30.000Z</time>
      </trkpt>
      <trkpt lat="49.94057" lon="1.63305">
        <ele>97</ele>
        <time>2011-10-27T11:57:53.000Z</time>
      </trkpt>
      <trkpt lat="49.94061" lon="1.63313">
        <ele>95</ele>
        <time>2011-10-27T11:57:59.000Z</time>
      </trkpt>
      <trkpt lat="49.9407" lon="1.63321">
        <ele>94</ele>
        <time>2011-10-27T11:58:07.000Z</time>
      </trkpt>
      <trkpt lat="49.94075" lon="1.63331">
        <ele>94</ele>
        <time>2011-10-27T11:58:16.000Z</time>
      </trkpt>
      <trkpt lat="49.94076" lon="1.63338">
        <ele>98</ele>
        <time>2011-10-27T11:58:24.000Z</time>
      </trkpt>
      <trkpt lat="49.94076" lon="1.63346">
        <ele>101</ele>
        <time>2011-10-27T11:58:31.000Z</time>
      </trkpt>
      <trkpt lat="49.94078" lon="1.63355">
        <ele>103</ele>
        <time>2011-10-27T11:58:38.000Z</time>
      </trkpt>
      <trkpt lat="49.94085" lon="1.63369">
        <ele>108</ele>
        <time>2011-10-27T11:58:50.000Z</time>
      </trkpt>
      <trkpt lat="49.9409" lon="1.63379">
        <ele>108</ele>
        <time>2011-10-27T11:58:58.000Z</time>
      </trkpt>
      <trkpt lat="49.94094" lon="1.63385">
        <ele>109</ele>
        <time>2011-10-27T11:59:02.000Z</time>
      </trkpt>
      <trkpt lat="49.94098" lon="1.63392">
        <ele>109</ele>
        <time>2011-10-27T11:59:07.000Z</time>
      </trkpt>
      <trkpt lat="49.94109" lon="1.6342">
        <ele>110</ele>
        <time>2011-10-27T11:59:27.000Z</time>
      </trkpt>
      <trkpt lat="49.94113" lon="1.63425">
        <ele>110</ele>
        <time>2011-10-27T11:59:36.000Z</time>
      </trkpt>
      <trkpt lat="49.94124" lon="1.63433">
        <ele>107</ele>
        <time>2011-10-27T11:59:49.000Z</time>
      </trkpt>
      <trkpt lat="49.94127" lon="1.63439">
        <ele>107</ele>
        <time>2011-10-27T11:59:55.000Z</time>
      </trkpt>
      <trkpt lat="49.94131" lon="1.63445">
        <ele>108</ele>
        <time>2011-10-27T12:00:01.000Z</time>
      </trkpt>
      <trkpt lat="49.9414" lon="1.63462">
        <ele>109</ele>
        <time>2011-10-27T12:00:16.000Z</time>
      </trkpt>
      <trkpt lat="49.94144" lon="1.63472">
        <ele>110</ele>
        <time>2011-10-27T12:00:25.000Z</time>
      </trkpt>
      <trkpt lat="49.94147" lon="1.63478">
        <ele>111</ele>
        <time>2011-10-27T12:00:31.000Z</time>
      </trkpt>
      <trkpt lat="49.94165" lon="1.6351">
        <ele>117</ele>
        <time>2011-10-27T12:01:00.000Z</time>
      </trkpt>
      <trkpt lat="49.94188" lon="1.63538">
        <ele>118</ele>
        <time>2011-10-27T12:01:24.000Z</time>
      </trkpt>
      <trkpt lat="49.94191" lon="1.63544">
        <ele>118</ele>
        <time>2011-10-27T12:01:29.000Z</time>
      </trkpt>
      <trkpt lat="49.94196" lon="1.63555">
        <ele>118</ele>
        <time>2011-10-27T12:01:37.000Z</time>
      </trkpt>
      <trkpt lat="49.94197" lon="1.63563">
        <ele>119</ele>
        <time>2011-10-27T12:01:45.000Z</time>
      </trkpt>
      <trkpt lat="49.94207" lon="1.63576">
        <ele>119</ele>
        <time>2011-10-27T12:01:57.000Z</time>
      </trkpt>
      <trkpt lat="49.94213" lon="1.6359">
        <ele>121</ele>
        <time>2011-10-27T12:02:09.000Z</time>
      </trkpt>
      <trkpt lat="49.94221" lon="1.63605">
        <ele>124</ele>
        <time>2011-10-27T12:02:23.000Z</time>
      </trkpt>
      <trkpt lat="49.94225" lon="1.63611">
        <ele>124</ele>
        <time>2011-10-27T12:02:28.000Z</time>
      </trkpt>
      <trkpt lat="49.94231" lon="1.63617">
        <ele>124</ele>
        <time>2011-10-27T12:02:34.000Z</time>
      </trkpt>
      <trkpt lat="49.94263" lon="1.63662">
        <ele>121</ele>
        <time>2011-10-27T12:03:10.000Z</time>
      </trkpt>
      <trkpt lat="49.94268" lon="1.63673">
        <ele>121</ele>
        <time>2011-10-27T12:03:18.000Z</time>
      </trkpt>
      <trkpt lat="49.94279" lon="1.63688">
        <ele>121</ele>
        <time>2011-10-27T12:03:29.000Z</time>
      </trkpt>
      <trkpt lat="49.94284" lon="1.63694">
        <ele>120</ele>
        <time>2011-10-27T12:03:35.000Z</time>
      </trkpt>
      <trkpt lat="49.94287" lon="1.63701">
        <ele>120</ele>
        <time>2011-10-27T12:03:41.000Z</time>
      </trkpt>
      <trkpt lat="49.94296" lon="1.63719">
        <ele>119</ele>
        <time>2011-10-27T12:03:55.000Z</time>
      </trkpt>
      <trkpt lat="49.94301" lon="1.63734">
        <ele>119</ele>
        <time>2011-10-27T12:04:05.000Z</time>
      </trkpt>
      <trkpt lat="49.94309" lon="1.63753">
        <ele>116</ele>
        <time>2011-10-27T12:04:17.000Z</time>
      </trkpt>
      <trkpt lat="49.94321" lon="1.6378">
        <ele>117</ele>
        <time>2011-10-27T12:04:34.000Z</time>
      </trkpt>
      <trkpt lat="49.94336" lon="1.63811">
        <ele>122</ele>
        <time>2011-10-27T12:04:57.000Z</time>
      </trkpt>
      <trkpt lat="49.9434" lon="1.63822">
        <ele>124</ele>
        <time>2011-10-27T12:05:06.000Z</time>
      </trkpt>
      <trkpt lat="49.94342" lon="1.6383">
        <ele>126</ele>
        <time>2011-10-27T12:05:12.000Z</time>
      </trkpt>
      <trkpt lat="49.94344" lon="1.63837">
        <ele>127</ele>
        <time>2011-10-27T12:05:18.000Z</time>
      </trkpt>
      <trkpt lat="49.94346" lon="1.63846">
        <ele>129</ele>
        <time>2011-10-27T12:05:25.000Z</time>
      </trkpt>
      <trkpt lat="49.9436" lon="1.6388">
        <ele>131</ele>
        <time>2011-10-27T12:06:05.000Z</time>
      </trkpt>
      <trkpt lat="49.94364" lon="1.63886">
        <ele>131</ele>
        <time>2011-10-27T12:06:11.000Z</time>
      </trkpt>
      <trkpt lat="49.9437" lon="1.6391">
        <ele>136</ele>
        <time>2011-10-27T12:06:26.000Z</time>
      </trkpt>
      <trkpt lat="49.94372" lon="1.63923">
        <ele>136</ele>
        <time>2011-10-27T12:06:35.000Z</time>
      </trkpt>
      <trkpt lat="49.94374" lon="1.63932">
        <ele>135</ele>
        <time>2011-10-27T12:06:41.000Z</time>
      </trkpt>
      <trkpt lat="49.94374" lon="1.63944">
        <ele>134</ele>
        <time>2011-10-27T12:06:54.000Z</time>
      </trkpt>
      <trkpt lat="49.94371" lon="1.63951">
        <ele>130</ele>
        <time>2011-10-27T12:07:03.000Z</time>
      </trkpt>
      <trkpt lat="49.94366" lon="1.63955">
        <ele>126</ele>
        <time>2011-10-27T12:07:10.000Z</time>
      </trkpt>
      <trkpt lat="49.94359" lon="1.63958">
        <ele>124</ele>
        <time>2011-10-27T12:07:21.000Z</time>
      </trkpt>
      <trkpt lat="49.94358" lon="1.63964">
        <ele>118</ele>
        <time>2011-10-27T12:07:30.000Z</time>
      </trkpt>
      <trkpt lat="49.94358" lon="1.63972">
        <ele>117</ele>
        <time>2011-10-27T12:07:37.000Z</time>
      </trkpt>
      <trkpt lat="49.94355" lon="1.63992">
        <ele>126</ele>
        <time>2011-10-27T12:07:56.000Z</time>
      </trkpt>
      <trkpt lat="49.94355" lon="1.64">
        <ele>127</ele>
        <time>2011-10-27T12:08:03.000Z</time>
      </trkpt>
      <trkpt lat="49.94355" lon="1.64009">
        <ele>129</ele>
        <time>2011-10-27T12:08:10.000Z</time>
      </trkpt>
      <trkpt lat="49.94353" lon="1.64016">
        <ele>129</ele>
        <time>2011-10-27T12:08:20.000Z</time>
      </trkpt>
      <trkpt lat="49.94347" lon="1.64019">
        <ele>133</ele>
        <time>2011-10-27T12:08:39.000Z</time>
      </trkpt>
      <trkpt lat="49.94342" lon="1.64018">
        <ele>134</ele>
        <time>2011-10-27T12:08:50.000Z</time>
      </trkpt>
      <trkpt lat="49.94334" lon="1.64016">
        <ele>134</ele>
        <time>2011-10-27T12:09:01.000Z</time>
      </trkpt>
      <trkpt lat="49.94327" lon="1.64023">
        <ele>132</ele>
        <time>2011-10-27T12:09:12.000Z</time>
      </trkpt>
      <trkpt lat="49.94315" lon="1.64065">
        <ele>125</ele>
        <time>2011-10-27T12:09:47.000Z</time>
      </trkpt>
      <trkpt lat="49.94318" lon="1.64072">
        <ele>122</ele>
        <time>2011-10-27T12:09:53.000Z</time>
      </trkpt>
      <trkpt lat="49.94318" lon="1.64079">
        <ele>126</ele>
        <time>2011-10-27T12:10:02.000Z</time>
      </trkpt>
      <trkpt lat="49.94316" lon="1.64098">
        <ele>132</ele>
        <time>2011-10-27T12:10:14.000Z</time>
      </trkpt>
      <trkpt lat="49.94318" lon="1.64106">
        <ele>130</ele>
        <time>2011-10-27T12:10:19.000Z</time>
      </trkpt>
      <trkpt lat="49.94319" lon="1.64114">
        <ele>129</ele>
        <time>2011-10-27T12:10:25.000Z</time>
      </trkpt>
      <trkpt lat="49.9432" lon="1.64131">
        <ele>129</ele>
        <time>2011-10-27T12:10:37.000Z</time>
      </trkpt>
      <trkpt lat="49.94319" lon="1.64149">
        <ele>131</ele>
        <time>2011-10-27T12:10:49.000Z</time>
      </trkpt>
      <trkpt lat="49.94319" lon="1.64163">
        <ele>133</ele>
        <time>2011-10-27T12:10:58.000Z</time>
      </trkpt>
      <trkpt lat="49.94319" lon="1.64176">
        <ele>136</ele>
        <time>2011-10-27T12:11:07.000Z</time>
      </trkpt>
      <trkpt lat="49.94322" lon="1.64244">
        <ele>145</ele>
        <time>2011-10-27T12:11:56.000Z</time>
      </trkpt>
      <trkpt lat="49.94323" lon="1.64252">
        <ele>146</ele>
        <time>2011-10-27T12:12:02.000Z</time>
      </trkpt>
      <trkpt lat="49.94326" lon="1.64265">
        <ele>148</ele>
        <time>2011-10-27T12:12:11.000Z</time>
      </trkpt>
      <trkpt lat="49.94338" lon="1.64307">
        <ele>151</ele>
        <time>2011-10-27T12:12:47.000Z</time>
      </trkpt>
      <trkpt lat="49.94356" lon="1.64346">
        <ele>152</ele>
        <time>2011-10-27T12:13:22.000Z</time>
      </trkpt>
      <trkpt lat="49.94382" lon="1.6438">
        <ele>156</ele>
        <time>2011-10-27T12:13:59.000Z</time>
      </trkpt>
      <trkpt lat="49.94386" lon="1.64385">
        <ele>158</ele>
        <time>2011-10-27T12:14:05.000Z</time>
      </trkpt>
      <trkpt lat="49.94395" lon="1.64397">
        <ele>163</ele>
        <time>2011-10-27T12:14:19.000Z</time>
      </trkpt>
      <trkpt lat="49.94418" lon="1.64418">
        <ele>165</ele>
        <time>2011-10-27T12:14:43.000Z</time>
      </trkpt>
      <trkpt lat="49.94428" lon="1.64427">
        <ele>167</ele>
        <time>2011-10-27T12:14:53.000Z</time>
      </trkpt>
      <trkpt lat="49.94457" lon="1.64455">
        <ele>171</ele>
        <time>2011-10-27T12:15:25.000Z</time>
      </trkpt>
      <trkpt lat="49.94492" lon="1.64503">
        <ele>180</ele>
        <time>2011-10-27T12:16:09.000Z</time>
      </trkpt>
      <trkpt lat="49.94493" lon="1.64504">
        <ele>181</ele>
        <time>2011-10-27T12:16:10.000Z</time>
      </trkpt>
      <trkpt lat="49.94496" lon="1.6451">
        <ele>182</ele>
        <time>2011-10-27T12:16:15.000Z</time>
      </trkpt>
      <trkpt lat="49.94499" lon="1.64517">
        <ele>186</ele>
        <time>2011-10-27T12:16:20.000Z</time>
      </trkpt>
      <trkpt lat="49.94502" lon="1.64524">
        <ele>186</ele>
        <time>2011-10-27T12:16:27.000Z</time>
      </trkpt>
      <trkpt lat="49.94513" lon="1.64537">
        <ele>182</ele>
        <time>2011-10-27T12:16:39.000Z</time>
      </trkpt>
      <trkpt lat="49.94521" lon="1.64544">
        <ele>178</ele>
        <time>2011-10-27T12:16:47.000Z</time>
      </trkpt>
      <trkpt lat="49.94527" lon="1.64549">
        <ele>176</ele>
        <time>2011-10-27T12:16:53.000Z</time>
      </trkpt>
      <trkpt lat="49.94563" lon="1.64586">
        <ele>184</ele>
        <time>2011-10-27T12:17:32.000Z</time>
      </trkpt>
      <trkpt lat="49.94564" lon="1.64588">
        <ele>184</ele>
        <time>2011-10-27T12:17:33.000Z</time>
      </trkpt>
      <trkpt lat="49.94579" lon="1.6461">
        <ele>180</ele>
        <time>2011-10-27T12:17:59.000Z</time>
      </trkpt>
      <trkpt lat="49.94577" lon="1.64619">
        <ele>180</ele>
        <time>2011-10-27T12:18:05.000Z</time>
      </trkpt>
      <trkpt lat="49.94574" lon="1.6463">
        <ele>176</ele>
        <time>2011-10-27T12:18:14.000Z</time>
      </trkpt>
      <trkpt lat="49.94567" lon="1.64644">
        <ele>172</ele>
        <time>2011-10-27T12:18:24.000Z</time>
      </trkpt>
      <trkpt lat="49.94565" lon="1.64652">
        <ele>170</ele>
        <time>2011-10-27T12:18:29.000Z</time>
      </trkpt>
      <trkpt lat="49.94557" lon="1.6467">
        <ele>167</ele>
        <time>2011-10-27T12:18:43.000Z</time>
      </trkpt>
      <trkpt lat="49.94552" lon="1.64682">
        <ele>168</ele>
        <time>2011-10-27T12:18:51.000Z</time>
      </trkpt>
      <trkpt lat="49.94548" lon="1.64688">
        <ele>173</ele>
        <time>2011-10-27T12:18:55.000Z</time>
      </trkpt>
      <trkpt lat="49.9453" lon="1.64717">
        <ele>169</ele>
        <time>2011-10-27T12:19:22.000Z</time>
      </trkpt>
      <trkpt lat="49.94527" lon="1.64725">
        <ele>168</ele>
        <time>2011-10-27T12:19:28.000Z</time>
      </trkpt>
      <trkpt lat="49.94524" lon="1.64737">
        <ele>168</ele>
        <time>2011-10-27T12:19:36.000Z</time>
      </trkpt>
      <trkpt lat="49.94505" lon="1.64767">
        <ele>161</ele>
        <time>2011-10-27T12:20:00.000Z</time>
      </trkpt>
      <trkpt lat="49.94495" lon="1.64773">
        <ele>165</ele>
        <time>2011-10-27T12:20:08.000Z</time>
      </trkpt>
      <trkpt lat="49.94481" lon="1.64794">
        <ele>175</ele>
        <time>2011-10-27T12:20:23.000Z</time>
      </trkpt>
      <trkpt lat="49.94478" lon="1.64804">
        <ele>177</ele>
        <time>2011-10-27T12:20:29.000Z</time>
      </trkpt>
      <trkpt lat="49.94476" lon="1.64811">
        <ele>179</ele>
        <time>2011-10-27T12:20:33.000Z</time>
      </trkpt>
      <trkpt lat="49.94472" lon="1.64816">
        <ele>179</ele>
        <time>2011-10-27T12:20:37.000Z</time>
      </trkpt>
      <trkpt lat="49.9446" lon="1.64835">
        <ele>173</ele>
        <time>2011-10-27T12:20:54.000Z</time>
      </trkpt>
      <trkpt lat="49.94458" lon="1.64844">
        <ele>170</ele>
        <time>2011-10-27T12:21:00.000Z</time>
      </trkpt>
      <trkpt lat="49.94454" lon="1.64852">
        <ele>171</ele>
        <time>2011-10-27T12:21:06.000Z</time>
      </trkpt>
      <trkpt lat="49.94434" lon="1.64884">
        <ele>173</ele>
        <time>2011-10-27T12:21:31.000Z</time>
      </trkpt>
      <trkpt lat="49.94429" lon="1.64893">
        <ele>171</ele>
        <time>2011-10-27T12:21:39.000Z</time>
      </trkpt>
      <trkpt lat="49.94419" lon="1.6491">
        <ele>172</ele>
        <time>2011-10-27T12:21:52.000Z</time>
      </trkpt>
      <trkpt lat="49.94413" lon="1.6492">
        <ele>172</ele>
        <time>2011-10-27T12:22:00.000Z</time>
      </trkpt>
      <trkpt lat="49.94403" lon="1.64932">
        <ele>171</ele>
        <time>2011-10-27T12:22:12.000Z</time>
      </trkpt>
      <trkpt lat="49.94399" lon="1.64937">
        <ele>173</ele>
        <time>2011-10-27T12:22:16.000Z</time>
      </trkpt>
      <trkpt lat="49.94394" lon="1.64943">
        <ele>176</ele>
        <time>2011-10-27T12:22:21.000Z</time>
      </trkpt>
      <trkpt lat="49.94384" lon="1.64961">
        <ele>176</ele>
        <time>2011-10-27T12:22:35.000Z</time>
      </trkpt>
      <trkpt lat="49.94381" lon="1.64969">
        <ele>169</ele>
        <time>2011-10-27T12:22:41.000Z</time>
      </trkpt>
      <trkpt lat="49.94378" lon="1.64976">
        <ele>161</ele>
        <time>2011-10-27T12:22:47.000Z</time>
      </trkpt>
      <trkpt lat="49.94373" lon="1.64986">
        <ele>149</ele>
        <time>2011-10-27T12:22:56.000Z</time>
      </trkpt>
      <trkpt lat="49.9437" lon="1.64991">
        <ele>142</ele>
        <time>2011-10-27T12:23:02.000Z</time>
      </trkpt>
      <trkpt lat="49.94362" lon="1.65">
        <ele>146</ele>
        <time>2011-10-27T12:23:21.000Z</time>
      </trkpt>
      <trkpt lat="49.94357" lon="1.65009">
        <ele>159</ele>
        <time>2011-10-27T12:23:26.000Z</time>
      </trkpt>
      <trkpt lat="49.94353" lon="1.65014">
        <ele>165</ele>
        <time>2011-10-27T12:23:30.000Z</time>
      </trkpt>
      <trkpt lat="49.94347" lon="1.65024">
        <ele>178</ele>
        <time>2011-10-27T12:23:36.000Z</time>
      </trkpt>
      <trkpt lat="49.9434" lon="1.65034">
        <ele>196</ele>
        <time>2011-10-27T12:23:42.000Z</time>
      </trkpt>
      <trkpt lat="49.94341" lon="1.65044">
        <ele>161</ele>
        <time>2011-10-27T12:24:06.000Z</time>
      </trkpt>
      <trkpt lat="49.94337" lon="1.6505">
        <ele>152</ele>
        <time>2011-10-27T12:24:12.000Z</time>
      </trkpt>
      <trkpt lat="49.94324" lon="1.65065">
        <ele>156</ele>
        <time>2011-10-27T12:24:25.000Z</time>
      </trkpt>
      <trkpt lat="49.94321" lon="1.65071">
        <ele>158</ele>
        <time>2011-10-27T12:24:30.000Z</time>
      </trkpt>
      <trkpt lat="49.94318" lon="1.65077">
        <ele>164</ele>
        <time>2011-10-27T12:24:34.000Z</time>
      </trkpt>
      <trkpt lat="49.94314" lon="1.65084">
        <ele>172</ele>
        <time>2011-10-27T12:24:39.000Z</time>
      </trkpt>
      <trkpt lat="49.94302" lon="1.65099">
        <ele>187</ele>
        <time>2011-10-27T12:24:49.000Z</time>
      </trkpt>
      <trkpt lat="49.94287" lon="1.65126">
        <ele>185</ele>
        <time>2011-10-27T12:25:32.000Z</time>
      </trkpt>
      <trkpt lat="49.94272" lon="1.65151">
        <ele>208</ele>
        <time>2011-10-27T12:26:02.000Z</time>
      </trkpt>
      <trkpt lat="49.94267" lon="1.65161">
        <ele>210</ele>
        <time>2011-10-27T12:26:09.000Z</time>
      </trkpt>
      <trkpt lat="49.94262" lon="1.65165">
        <ele>212</ele>
        <time>2011-10-27T12:26:13.000Z</time>
      </trkpt>
      <trkpt lat="49.94258" lon="1.6517">
        <ele>209</ele>
        <time>2011-10-27T12:26:18.000Z</time>
      </trkpt>
      <trkpt lat="49.94254" lon="1.65176">
        <ele>205</ele>
        <time>2011-10-27T12:26:25.000Z</time>
      </trkpt>
      <trkpt lat="49.94233" lon="1.65205">
        <ele>189</ele>
        <time>2011-10-27T12:26:55.000Z</time>
      </trkpt>
      <trkpt lat="49.9423" lon="1.65211">
        <ele>189</ele>
        <time>2011-10-27T12:27:00.000Z</time>
      </trkpt>
      <trkpt lat="49.94222" lon="1.6522">
        <ele>187</ele>
        <time>2011-10-27T12:27:08.000Z</time>
      </trkpt>
      <trkpt lat="49.9421" lon="1.65242">
        <ele>181</ele>
        <time>2011-10-27T12:27:24.000Z</time>
      </trkpt>
      <trkpt lat="49.94205" lon="1.65253">
        <ele>181</ele>
        <time>2011-10-27T12:27:32.000Z</time>
      </trkpt>
      <trkpt lat="49.94196" lon="1.65274">
        <ele>182</ele>
        <time>2011-10-27T12:27:44.000Z</time>
      </trkpt>
      <trkpt lat="49.94179" lon="1.65304">
        <ele>174</ele>
        <time>2011-10-27T12:28:04.000Z</time>
      </trkpt>
      <trkpt lat="49.94176" lon="1.65309">
        <ele>173</ele>
        <time>2011-10-27T12:28:08.000Z</time>
      </trkpt>
      <trkpt lat="49.9417" lon="1.65317">
        <ele>172</ele>
        <time>2011-10-27T12:28:14.000Z</time>
      </trkpt>
      <trkpt lat="49.94167" lon="1.65323">
        <ele>171</ele>
        <time>2011-10-27T12:28:18.000Z</time>
      </trkpt>
      <trkpt lat="49.94139" lon="1.65363">
        <ele>184</ele>
        <time>2011-10-27T12:28:53.000Z</time>
      </trkpt>
      <trkpt lat="49.94133" lon="1.65369">
        <ele>181</ele>
        <time>2011-10-27T12:28:59.000Z</time>
      </trkpt>
      <trkpt lat="49.94122" lon="1.65385">
        <ele>178</ele>
        <time>2011-10-27T12:29:13.000Z</time>
      </trkpt>
      <trkpt lat="49.94117" lon="1.65395">
        <ele>180</ele>
        <time>2011-10-27T12:29:20.000Z</time>
      </trkpt>
      <trkpt lat="49.94113" lon="1.65402">
        <ele>180</ele>
        <time>2011-10-27T12:29:26.000Z</time>
      </trkpt>
      <trkpt lat="49.94108" lon="1.65411">
        <ele>180</ele>
        <time>2011-10-27T12:29:34.000Z</time>
      </trkpt>
      <trkpt lat="49.94104" lon="1.6542">
        <ele>178</ele>
        <time>2011-10-27T12:29:43.000Z</time>
      </trkpt>
      <trkpt lat="49.94108" lon="1.65427">
        <ele>181</ele>
        <time>2011-10-27T12:30:01.000Z</time>
      </trkpt>
      <trkpt lat="49.94112" lon="1.65434">
        <ele>177</ele>
        <time>2011-10-27T12:30:58.000Z</time>
      </trkpt>
      <trkpt lat="49.94118" lon="1.65437">
        <ele>178</ele>
        <time>2011-10-27T12:31:08.000Z</time>
      </trkpt>
      <trkpt lat="49.94124" lon="1.65437">
        <ele>179</ele>
        <time>2011-10-27T12:31:17.000Z</time>
      </trkpt>
      <trkpt lat="49.94129" lon="1.6544">
        <ele>180</ele>
        <time>2011-10-27T12:31:24.000Z</time>
      </trkpt>
      <trkpt lat="49.94122" lon="1.65414">
        <ele>180</ele>
        <time>2011-10-27T12:32:09.000Z</time>
      </trkpt>
      <trkpt lat="49.9411" lon="1.65418">
        <ele>183</ele>
        <time>2011-10-27T12:32:59.000Z</time>
      </trkpt>
      <trkpt lat="49.94112" lon="1.65426">
        <ele>182</ele>
        <time>2011-10-27T12:33:07.000Z</time>
      </trkpt>
      <trkpt lat="49.9411" lon="1.65432">
        <ele>183</ele>
        <time>2011-10-27T12:33:22.000Z</time>
      </trkpt>
      <trkpt lat="49.94109" lon="1.65444">
        <ele>183</ele>
        <time>2011-10-27T12:33:34.000Z</time>
      </trkpt>
      <trkpt lat="49.94107" lon="1.65452">
        <ele>182</ele>
        <time>2011-10-27T12:33:46.000Z</time>
      </trkpt>
      <trkpt lat="49.94104" lon="1.65458">
        <ele>181</ele>
        <time>2011-10-27T12:33:53.000Z</time>
      </trkpt>
      <trkpt lat="49.94096" lon="1.6546">
        <ele>176</ele>
        <time>2011-10-27T12:34:16.000Z</time>
      </trkpt>
      <trkpt lat="49.94091" lon="1.65463">
        <ele>176</ele>
        <time>2011-10-27T12:34:35.000Z</time>
      </trkpt>
      <trkpt lat="49.94079" lon="1.65474">
        <ele>177</ele>
        <time>2011-10-27T12:34:50.000Z</time>
      </trkpt>
      <trkpt lat="49.94075" lon="1.65479">
        <ele>177</ele>
        <time>2011-10-27T12:34:56.000Z</time>
      </trkpt>
      <trkpt lat="49.94067" lon="1.65483">
        <ele>183</ele>
        <time>2011-10-27T12:35:52.000Z</time>
      </trkpt>
      <trkpt lat="49.94063" lon="1.65486">
        <ele>182</ele>
        <time>2011-10-27T12:35:57.000Z</time>
      </trkpt>
      <trkpt lat="49.94054" lon="1.65492">
        <ele>178</ele>
        <time>2011-10-27T12:36:07.000Z</time>
      </trkpt>
      <trkpt lat="49.9405" lon="1.65499">
        <ele>174</ele>
        <time>2011-10-27T12:36:13.000Z</time>
      </trkpt>
      <trkpt lat="49.94028" lon="1.65542">
        <ele>179</ele>
        <time>2011-10-27T12:36:44.000Z</time>
      </trkpt>
      <trkpt lat="49.94024" lon="1.65548">
        <ele>177</ele>
        <time>2011-10-27T12:36:50.000Z</time>
      </trkpt>
      <trkpt lat="49.94019" lon="1.65557">
        <ele>176</ele>
        <time>2011-10-27T12:36:58.000Z</time>
      </trkpt>
      <trkpt lat="49.94016" lon="1.65564">
        <ele>174</ele>
        <time>2011-10-27T12:37:03.000Z</time>
      </trkpt>
      <trkpt lat="49.94012" lon="1.65571">
        <ele>175</ele>
        <time>2011-10-27T12:37:09.000Z</time>
      </trkpt>
      <trkpt lat="49.94004" lon="1.65586">
        <ele>174</ele>
        <time>2011-10-27T12:37:19.000Z</time>
      </trkpt>
      <trkpt lat="49.93997" lon="1.65595">
        <ele>172</ele>
        <time>2011-10-27T12:37:27.000Z</time>
      </trkpt>
      <trkpt lat="49.93986" lon="1.65612">
        <ele>178</ele>
        <time>2011-10-27T12:37:41.000Z</time>
      </trkpt>
      <trkpt lat="49.93976" lon="1.65634">
        <ele>182</ele>
        <time>2011-10-27T12:37:55.000Z</time>
      </trkpt>
      <trkpt lat="49.9397" lon="1.65645">
        <ele>182</ele>
        <time>2011-10-27T12:38:03.000Z</time>
      </trkpt>
      <trkpt lat="49.93964" lon="1.65654">
        <ele>182</ele>
        <time>2011-10-27T12:38:11.000Z</time>
      </trkpt>
      <trkpt lat="49.93959" lon="1.65657">
        <ele>179</ele>
        <time>2011-10-27T12:38:17.000Z</time>
      </trkpt>
      <trkpt lat="49.93954" lon="1.65661">
        <ele>174</ele>
        <time>2011-10-27T12:38:22.000Z</time>
      </trkpt>
      <trkpt lat="49.93943" lon="1.65686">
        <ele>176</ele>
        <time>2011-10-27T12:38:39.000Z</time>
      </trkpt>
      <trkpt lat="49.93937" lon="1.65694">
        <ele>178</ele>
        <time>2011-10-27T12:38:46.000Z</time>
      </trkpt>
      <trkpt lat="49.93931" lon="1.65699">
        <ele>178</ele>
        <time>2011-10-27T12:38:51.000Z</time>
      </trkpt>
      <trkpt lat="49.93917" lon="1.6572">
        <ele>176</ele>
        <time>2011-10-27T12:39:06.000Z</time>
      </trkpt>
      <trkpt lat="49.93915" lon="1.65732">
        <ele>178</ele>
        <time>2011-10-27T12:39:13.000Z</time>
      </trkpt>
      <trkpt lat="49.93912" lon="1.65739">
        <ele>179</ele>
        <time>2011-10-27T12:39:18.000Z</time>
      </trkpt>
      <trkpt lat="49.93898" lon="1.6576">
        <ele>186</ele>
        <time>2011-10-27T12:39:38.000Z</time>
      </trkpt>
      <trkpt lat="49.93891" lon="1.65767">
        <ele>186</ele>
        <time>2011-10-27T12:39:47.000Z</time>
      </trkpt>
      <trkpt lat="49.9388" lon="1.65787">
        <ele>183</ele>
        <time>2011-10-27T12:40:03.000Z</time>
      </trkpt>
      <trkpt lat="49.93874" lon="1.65796">
        <ele>180</ele>
        <time>2011-10-27T12:40:11.000Z</time>
      </trkpt>
      <trkpt lat="49.93871" lon="1.65802">
        <ele>178</ele>
        <time>2011-10-27T12:40:16.000Z</time>
      </trkpt>
      <trkpt lat="49.93863" lon="1.65821">
        <ele>171</ele>
        <time>2011-10-27T12:40:31.000Z</time>
      </trkpt>
      <trkpt lat="49.93853" lon="1.65843">
        <ele>175</ele>
        <time>2011-10-27T12:40:46.000Z</time>
      </trkpt>
      <trkpt lat="49.93848" lon="1.65876">
        <ele>173</ele>
        <time>2011-10-27T12:41:07.000Z</time>
      </trkpt>
      <trkpt lat="49.93848" lon="1.65898">
        <ele>178</ele>
        <time>2011-10-27T12:41:21.000Z</time>
      </trkpt>
      <trkpt lat="49.9385" lon="1.65905">
        <ele>181</ele>
        <time>2011-10-27T12:41:27.000Z</time>
      </trkpt>
      <trkpt lat="49.93851" lon="1.65915">
        <ele>183</ele>
        <time>2011-10-27T12:41:33.000Z</time>
      </trkpt>
      <trkpt lat="49.93853" lon="1.65936">
        <ele>180</ele>
        <time>2011-10-27T12:41:45.000Z</time>
      </trkpt>
      <trkpt lat="49.93852" lon="1.65946">
        <ele>178</ele>
        <time>2011-10-27T12:41:51.000Z</time>
      </trkpt>
      <trkpt lat="49.93854" lon="1.6596">
        <ele>178</ele>
        <time>2011-10-27T12:41:59.000Z</time>
      </trkpt>
      <trkpt lat="49.93856" lon="1.65981">
        <ele>178</ele>
        <time>2011-10-27T12:42:12.000Z</time>
      </trkpt>
      <trkpt lat="49.93857" lon="1.6599">
        <ele>179</ele>
        <time>2011-10-27T12:42:18.000Z</time>
      </trkpt>
      <trkpt lat="49.93861" lon="1.66023">
        <ele>179</ele>
        <time>2011-10-27T12:42:39.000Z</time>
      </trkpt>
      <trkpt lat="49.93862" lon="1.66036">
        <ele>178</ele>
        <time>2011-10-27T12:42:46.000Z</time>
      </trkpt>
      <trkpt lat="49.93863" lon="1.66048">
        <ele>178</ele>
        <time>2011-10-27T12:42:53.000Z</time>
      </trkpt>
      <trkpt lat="49.93864" lon="1.66064">
        <ele>178</ele>
        <time>2011-10-27T12:43:02.000Z</time>
      </trkpt>
      <trkpt lat="49.93864" lon="1.66081">
        <ele>178</ele>
        <time>2011-10-27T12:43:13.000Z</time>
      </trkpt>
      <trkpt lat="49.93865" lon="1.6609">
        <ele>177</ele>
        <time>2011-10-27T12:43:23.000Z</time>
      </trkpt>
      <trkpt lat="49.93864" lon="1.66098">
        <ele>177</ele>
        <time>2011-10-27T12:43:29.000Z</time>
      </trkpt>
      <trkpt lat="49.93862" lon="1.66105">
        <ele>178</ele>
        <time>2011-10-27T12:43:40.000Z</time>
      </trkpt>
      <trkpt lat="49.93861" lon="1.66111">
        <ele>176</ele>
        <time>2011-10-27T12:43:58.000Z</time>
      </trkpt>
      <trkpt lat="49.93858" lon="1.66122">
        <ele>179</ele>
        <time>2011-10-27T12:44:07.000Z</time>
      </trkpt>
      <trkpt lat="49.93855" lon="1.66129">
        <ele>181</ele>
        <time>2011-10-27T12:44:13.000Z</time>
      </trkpt>
      <trkpt lat="49.93852" lon="1.66136">
        <ele>180</ele>
        <time>2011-10-27T12:44:19.000Z</time>
      </trkpt>
      <trkpt lat="49.93843" lon="1.66152">
        <ele>178</ele>
        <time>2011-10-27T12:44:36.000Z</time>
      </trkpt>
      <trkpt lat="49.93842" lon="1.66159">
        <ele>179</ele>
        <time>2011-10-27T12:44:42.000Z</time>
      </trkpt>
      <trkpt lat="49.93841" lon="1.66166">
        <ele>179</ele>
        <time>2011-10-27T12:44:48.000Z</time>
      </trkpt>
      <trkpt lat="49.93835" lon="1.66177">
        <ele>178</ele>
        <time>2011-10-27T12:44:57.000Z</time>
      </trkpt>
      <trkpt lat="49.93832" lon="1.66183">
        <ele>178</ele>
        <time>2011-10-27T12:45:03.000Z</time>
      </trkpt>
      <trkpt lat="49.93827" lon="1.66194">
        <ele>178</ele>
        <time>2011-10-27T12:45:12.000Z</time>
      </trkpt>
      <trkpt lat="49.93825" lon="1.66203">
        <ele>166</ele>
        <time>2011-10-27T12:45:33.000Z</time>
      </trkpt>
      <trkpt lat="49.93821" lon="1.6621">
        <ele>160</ele>
        <time>2011-10-27T12:45:43.000Z</time>
      </trkpt>
      <trkpt lat="49.93808" lon="1.6624">
        <ele>173</ele>
        <time>2011-10-27T12:46:40.000Z</time>
      </trkpt>
      <trkpt lat="49.93805" lon="1.66249">
        <ele>170</ele>
        <time>2011-10-27T12:46:48.000Z</time>
      </trkpt>
      <trkpt lat="49.938" lon="1.66258">
        <ele>172</ele>
        <time>2011-10-27T12:47:00.000Z</time>
      </trkpt>
      <trkpt lat="49.93798" lon="1.66264">
        <ele>173</ele>
        <time>2011-10-27T12:47:12.000Z</time>
      </trkpt>
      <trkpt lat="49.93793" lon="1.66275">
        <ele>175</ele>
        <time>2011-10-27T12:47:23.000Z</time>
      </trkpt>
      <trkpt lat="49.93764" lon="1.66329">
        <ele>173</ele>
        <time>2011-10-27T12:48:18.000Z</time>
      </trkpt>
      <trkpt lat="49.93764" lon="1.6633">
        <ele>172</ele>
        <time>2011-10-27T12:48:19.000Z</time>
      </trkpt>
      <trkpt lat="49.93763" lon="1.66332">
        <ele>172</ele>
        <time>2011-10-27T12:48:21.000Z</time>
      </trkpt>
      <trkpt lat="49.93743" lon="1.66372">
        <ele>174</ele>
        <time>2011-10-27T12:48:55.000Z</time>
      </trkpt>
      <trkpt lat="49.93739" lon="1.66379">
        <ele>173</ele>
        <time>2011-10-27T12:49:01.000Z</time>
      </trkpt>
      <trkpt lat="49.93729" lon="1.66399">
        <ele>175</ele>
        <time>2011-10-27T12:49:25.000Z</time>
      </trkpt>
      <trkpt lat="49.93726" lon="1.66406">
        <ele>176</ele>
        <time>2011-10-27T12:49:32.000Z</time>
      </trkpt>
      <trkpt lat="49.93717" lon="1.66421">
        <ele>174</ele>
        <time>2011-10-27T12:51:00.000Z</time>
      </trkpt>
      <trkpt lat="49.93715" lon="1.66427">
        <ele>175</ele>
        <time>2011-10-27T12:51:58.000Z</time>
      </trkpt>
      <trkpt lat="49.93685" lon="1.66477">
        <ele>177</ele>
        <time>2011-10-27T12:52:41.000Z</time>
      </trkpt>
      <trkpt lat="49.93677" lon="1.66494">
        <ele>176</ele>
        <time>2011-10-27T12:52:57.000Z</time>
      </trkpt>
      <trkpt lat="49.93672" lon="1.66506">
        <ele>175</ele>
        <time>2011-10-27T12:53:11.000Z</time>
      </trkpt>
      <trkpt lat="49.93644" lon="1.66561">
        <ele>177</ele>
        <time>2011-10-27T12:53:55.000Z</time>
      </trkpt>
      <trkpt lat="49.93643" lon="1.66562">
        <ele>177</ele>
        <time>2011-10-27T12:53:56.000Z</time>
      </trkpt>
      <trkpt lat="49.93633" lon="1.66579">
        <ele>175</ele>
        <time>2011-10-27T12:54:12.000Z</time>
      </trkpt>
      <trkpt lat="49.93616" lon="1.66596">
        <ele>178</ele>
        <time>2011-10-27T12:54:35.000Z</time>
      </trkpt>
      <trkpt lat="49.93608" lon="1.66613">
        <ele>173</ele>
        <time>2011-10-27T12:54:51.000Z</time>
      </trkpt>
      <trkpt lat="49.93605" lon="1.6662">
        <ele>173</ele>
        <time>2011-10-27T12:54:56.000Z</time>
      </trkpt>
      <trkpt lat="49.93584" lon="1.66656">
        <ele>179</ele>
        <time>2011-10-27T12:55:27.000Z</time>
      </trkpt>
      <trkpt lat="49.93579" lon="1.6666">
        <ele>178</ele>
        <time>2011-10-27T12:55:33.000Z</time>
      </trkpt>
      <trkpt lat="49.93577" lon="1.66665">
        <ele>178</ele>
        <time>2011-10-27T12:55:37.000Z</time>
      </trkpt>
      <trkpt lat="49.93573" lon="1.66672">
        <ele>178</ele>
        <time>2011-10-27T12:55:42.000Z</time>
      </trkpt>
      <trkpt lat="49.93566" lon="1.6669">
        <ele>177</ele>
        <time>2011-10-27T12:55:54.000Z</time>
      </trkpt>
      <trkpt lat="49.93566" lon="1.66697">
        <ele>178</ele>
        <time>2011-10-27T12:56:00.000Z</time>
      </trkpt>
      <trkpt lat="49.93563" lon="1.66705">
        <ele>178</ele>
        <time>2011-10-27T12:56:06.000Z</time>
      </trkpt>
      <trkpt lat="49.9355" lon="1.66747">
        <ele>179</ele>
        <time>2011-10-27T12:56:34.000Z</time>
      </trkpt>
      <trkpt lat="49.93548" lon="1.66756">
        <ele>180</ele>
        <time>2011-10-27T12:56:40.000Z</time>
      </trkpt>
      <trkpt lat="49.93547" lon="1.66766">
        <ele>182</ele>
        <time>2011-10-27T12:56:46.000Z</time>
      </trkpt>
      <trkpt lat="49.93546" lon="1.66775">
        <ele>184</ele>
        <time>2011-10-27T12:56:52.000Z</time>
      </trkpt>
      <trkpt lat="49.93544" lon="1.66783">
        <ele>184</ele>
        <time>2011-10-27T12:56:57.000Z</time>
      </trkpt>
      <trkpt lat="49.93538" lon="1.66799">
        <ele>182</ele>
        <time>2011-10-27T12:57:08.000Z</time>
      </trkpt>
      <trkpt lat="49.93536" lon="1.66808">
        <ele>182</ele>
        <time>2011-10-27T12:57:13.000Z</time>
      </trkpt>
      <trkpt lat="49.93533" lon="1.66826">
        <ele>184</ele>
        <time>2011-10-27T12:57:24.000Z</time>
      </trkpt>
      <trkpt lat="49.9353" lon="1.66832">
        <ele>184</ele>
        <time>2011-10-27T12:57:31.000Z</time>
      </trkpt>
      <trkpt lat="49.93526" lon="1.66837">
        <ele>178</ele>
        <time>2011-10-27T12:57:54.000Z</time>
      </trkpt>
      <trkpt lat="49.93521" lon="1.66858">
        <ele>178</ele>
        <time>2011-10-27T12:58:07.000Z</time>
      </trkpt>
      <trkpt lat="49.93515" lon="1.6687">
        <ele>177</ele>
        <time>2011-10-27T12:58:17.000Z</time>
      </trkpt>
      <trkpt lat="49.93494" lon="1.66914">
        <ele>176</ele>
        <time>2011-10-27T12:58:48.000Z</time>
      </trkpt>
      <trkpt lat="49.93474" lon="1.66952">
        <ele>178</ele>
        <time>2011-10-27T12:59:14.000Z</time>
      </trkpt>
      <trkpt lat="49.9347" lon="1.6696">
        <ele>179</ele>
        <time>2011-10-27T12:59:20.000Z</time>
      </trkpt>
      <trkpt lat="49.93466" lon="1.6697">
        <ele>179</ele>
        <time>2011-10-27T12:59:27.000Z</time>
      </trkpt>
      <trkpt lat="49.93459" lon="1.66983">
        <ele>179</ele>
        <time>2011-10-27T12:59:37.000Z</time>
      </trkpt>
      <trkpt lat="49.93428" lon="1.67035">
        <ele>175</ele>
        <time>2011-10-27T13:00:17.000Z</time>
      </trkpt>
      <trkpt lat="49.93427" lon="1.67037">
        <ele>175</ele>
        <time>2011-10-27T13:00:18.000Z</time>
      </trkpt>
      <trkpt lat="49.93427" lon="1.67039">
        <ele>176</ele>
        <time>2011-10-27T13:00:19.000Z</time>
      </trkpt>
      <trkpt lat="49.93398" lon="1.67095">
        <ele>174</ele>
        <time>2011-10-27T13:00:56.000Z</time>
      </trkpt>
      <trkpt lat="49.93397" lon="1.67096">
        <ele>174</ele>
        <time>2011-10-27T13:00:57.000Z</time>
      </trkpt>
      <trkpt lat="49.93386" lon="1.67115">
        <ele>177</ele>
        <time>2011-10-27T13:01:13.000Z</time>
      </trkpt>
      <trkpt lat="49.9338" lon="1.67124">
        <ele>177</ele>
        <time>2011-10-27T13:01:21.000Z</time>
      </trkpt>
      <trkpt lat="49.93378" lon="1.67132">
        <ele>176</ele>
        <time>2011-10-27T13:01:27.000Z</time>
      </trkpt>
      <trkpt lat="49.9338" lon="1.67141">
        <ele>175</ele>
        <time>2011-10-27T13:01:32.000Z</time>
      </trkpt>
      <trkpt lat="49.93382" lon="1.6716">
        <ele>167</ele>
        <time>2011-10-27T13:01:43.000Z</time>
      </trkpt>
      <trkpt lat="49.93383" lon="1.67169">
        <ele>164</ele>
        <time>2011-10-27T13:01:48.000Z</time>
      </trkpt>
      <trkpt lat="49.93385" lon="1.67177">
        <ele>162</ele>
        <time>2011-10-27T13:01:53.000Z</time>
      </trkpt>
      <trkpt lat="49.9339" lon="1.67211">
        <ele>164</ele>
        <time>2011-10-27T13:02:12.000Z</time>
      </trkpt>
      <trkpt lat="49.93393" lon="1.67218">
        <ele>166</ele>
        <time>2011-10-27T13:02:16.000Z</time>
      </trkpt>
      <trkpt lat="49.93398" lon="1.67239">
        <ele>169</ele>
        <time>2011-10-27T13:02:27.000Z</time>
      </trkpt>
      <trkpt lat="49.93399" lon="1.67256">
        <ele>168</ele>
        <time>2011-10-27T13:02:36.000Z</time>
      </trkpt>
      <trkpt lat="49.93407" lon="1.67289">
        <ele>172</ele>
        <time>2011-10-27T13:02:54.000Z</time>
      </trkpt>
      <trkpt lat="49.93408" lon="1.67302">
        <ele>172</ele>
        <time>2011-10-27T13:03:01.000Z</time>
      </trkpt>
      <trkpt lat="49.93407" lon="1.67349">
        <ele>162</ele>
        <time>2011-10-27T13:03:27.000Z</time>
      </trkpt>
      <trkpt lat="49.93407" lon="1.67369">
        <ele>156</ele>
        <time>2011-10-27T13:03:38.000Z</time>
      </trkpt>
      <trkpt lat="49.93413" lon="1.67384">
        <ele>164</ele>
        <time>2011-10-27T13:03:47.000Z</time>
      </trkpt>
      <trkpt lat="49.93405" lon="1.67388">
        <ele>171</ele>
        <time>2011-10-27T13:03:59.000Z</time>
      </trkpt>
      <trkpt lat="49.93399" lon="1.67389">
        <ele>173</ele>
        <time>2011-10-27T13:04:05.000Z</time>
      </trkpt>
      <trkpt lat="49.93355" lon="1.67404">
        <ele>175</ele>
        <time>2011-10-27T13:04:41.000Z</time>
      </trkpt>
      <trkpt lat="49.93354" lon="1.67404">
        <ele>174</ele>
        <time>2011-10-27T13:04:42.000Z</time>
      </trkpt>
      <trkpt lat="49.93342" lon="1.67405">
        <ele>173</ele>
        <time>2011-10-27T13:04:51.000Z</time>
      </trkpt>
      <trkpt lat="49.93319" lon="1.67404">
        <ele>172</ele>
        <time>2011-10-27T13:05:10.000Z</time>
      </trkpt>
      <trkpt lat="49.93274" lon="1.67401">
        <ele>171</ele>
        <time>2011-10-27T13:05:46.000Z</time>
      </trkpt>
      <trkpt lat="49.93273" lon="1.67401">
        <ele>171</ele>
        <time>2011-10-27T13:05:47.000Z</time>
      </trkpt>
      <trkpt lat="49.93264" lon="1.67402">
        <ele>172</ele>
        <time>2011-10-27T13:05:53.000Z</time>
      </trkpt>
      <trkpt lat="49.93256" lon="1.674">
        <ele>172</ele>
        <time>2011-10-27T13:06:00.000Z</time>
      </trkpt>
      <trkpt lat="49.93251" lon="1.67399">
        <ele>172</ele>
        <time>2011-10-27T13:06:05.000Z</time>
      </trkpt>
      <trkpt lat="49.93214" lon="1.67403">
        <ele>177</ele>
        <time>2011-10-27T13:06:36.000Z</time>
      </trkpt>
      <trkpt lat="49.93205" lon="1.67404">
        <ele>178</ele>
        <time>2011-10-27T13:06:43.000Z</time>
      </trkpt>
      <trkpt lat="49.93162" lon="1.67426">
        <ele>172</ele>
        <time>2011-10-27T13:07:19.000Z</time>
      </trkpt>
      <trkpt lat="49.93161" lon="1.67426">
        <ele>172</ele>
        <time>2011-10-27T13:07:20.000Z</time>
      </trkpt>
      <trkpt lat="49.93158" lon="1.67428">
        <ele>173</ele>
        <time>2011-10-27T13:07:22.000Z</time>
      </trkpt>
      <trkpt lat="49.9314" lon="1.67452">
        <ele>171</ele>
        <time>2011-10-27T13:07:43.000Z</time>
      </trkpt>
      <trkpt lat="49.93136" lon="1.67459">
        <ele>176</ele>
        <time>2011-10-27T13:07:49.000Z</time>
      </trkpt>
      <trkpt lat="49.9313" lon="1.67457">
        <ele>173</ele>
        <time>2011-10-27T13:07:55.000Z</time>
      </trkpt>
      <trkpt lat="49.93106" lon="1.67452">
        <ele>167</ele>
        <time>2011-10-27T13:08:13.000Z</time>
      </trkpt>
      <trkpt lat="49.93095" lon="1.67445">
        <ele>167</ele>
        <time>2011-10-27T13:08:24.000Z</time>
      </trkpt>
      <trkpt lat="49.93088" lon="1.67438">
        <ele>165</ele>
        <time>2011-10-27T13:08:31.000Z</time>
      </trkpt>
      <trkpt lat="49.93084" lon="1.67435">
        <ele>165</ele>
        <time>2011-10-27T13:08:43.000Z</time>
      </trkpt>
      <trkpt lat="49.93078" lon="1.67427">
        <ele>171</ele>
        <time>2011-10-27T13:09:00.000Z</time>
      </trkpt>
      <trkpt lat="49.93079" lon="1.6742">
        <ele>170</ele>
        <time>2011-10-27T13:09:14.000Z</time>
      </trkpt>
      <trkpt lat="49.93073" lon="1.6742">
        <ele>169</ele>
        <time>2011-10-27T13:09:30.000Z</time>
      </trkpt>
      <trkpt lat="49.9305" lon="1.674">
        <ele>164</ele>
        <time>2011-10-27T13:09:54.000Z</time>
      </trkpt>
      <trkpt lat="49.93038" lon="1.67378">
        <ele>161</ele>
        <time>2011-10-27T13:10:11.000Z</time>
      </trkpt>
      <trkpt lat="49.93034" lon="1.67371">
        <ele>162</ele>
        <time>2011-10-27T13:10:15.000Z</time>
      </trkpt>
      <trkpt lat="49.93022" lon="1.67356">
        <ele>160</ele>
        <time>2011-10-27T13:10:28.000Z</time>
      </trkpt>
      <trkpt lat="49.93007" lon="1.67338">
        <ele>162</ele>
        <time>2011-10-27T13:10:55.000Z</time>
      </trkpt>
      <trkpt lat="49.92998" lon="1.67334">
        <ele>152</ele>
        <time>2011-10-27T13:11:36.000Z</time>
      </trkpt>
      <trkpt lat="49.93" lon="1.67328">
        <ele>159</ele>
        <time>2011-10-27T13:12:05.000Z</time>
      </trkpt>
      <trkpt lat="49.93009" lon="1.67328">
        <ele>166</ele>
        <time>2011-10-27T13:12:50.000Z</time>
      </trkpt>
      <trkpt lat="49.93008" lon="1.67322">
        <ele>170</ele>
        <time>2011-10-27T13:13:40.000Z</time>
      </trkpt>
      <trkpt lat="49.93004" lon="1.6732">
        <ele>167</ele>
        <time>2011-10-27T13:13:48.000Z</time>
      </trkpt>
      <trkpt lat="49.92976" lon="1.67296">
        <ele>151</ele>
        <time>2011-10-27T13:14:26.000Z</time>
      </trkpt>
      <trkpt lat="49.92954" lon="1.67269">
        <ele>146</ele>
        <time>2011-10-27T13:15:04.000Z</time>
      </trkpt>
      <trkpt lat="49.92949" lon="1.67268">
        <ele>151</ele>
        <time>2011-10-27T13:15:21.000Z</time>
      </trkpt>
      <trkpt lat="49.92951" lon="1.67265">
        <ele>148</ele>
        <time>2011-10-27T13:16:29.000Z</time>
      </trkpt>
      <trkpt lat="49.92954" lon="1.6727">
        <ele>150</ele>
        <time>2011-10-27T13:16:53.000Z</time>
      </trkpt>
      <trkpt lat="49.92948" lon="1.67269">
        <ele>149</ele>
        <time>2011-10-27T13:17:01.000Z</time>
      </trkpt>
      <trkpt lat="49.9293" lon="1.6726">
        <ele>143</ele>
        <time>2011-10-27T13:17:22.000Z</time>
      </trkpt>
      <trkpt lat="49.92927" lon="1.67263">
        <ele>150</ele>
        <time>2011-10-27T13:17:49.000Z</time>
      </trkpt>
      <trkpt lat="49.92923" lon="1.67267">
        <ele>152</ele>
        <time>2011-10-27T13:17:58.000Z</time>
      </trkpt>
      <trkpt lat="49.92911" lon="1.67268">
        <ele>152</ele>
        <time>2011-10-27T13:18:11.000Z</time>
      </trkpt>
      <trkpt lat="49.92906" lon="1.67266">
        <ele>150</ele>
        <time>2011-10-27T13:18:17.000Z</time>
      </trkpt>
      <trkpt lat="49.92898" lon="1.67263">
        <ele>147</ele>
        <time>2011-10-27T13:18:25.000Z</time>
      </trkpt>
      <trkpt lat="49.92893" lon="1.67263">
        <ele>144</ele>
        <time>2011-10-27T13:18:32.000Z</time>
      </trkpt>
      <trkpt lat="49.92883" lon="1.67263">
        <ele>145</ele>
        <time>2011-10-27T13:18:59.000Z</time>
      </trkpt>
      <trkpt lat="49.92878" lon="1.6726">
        <ele>144</ele>
        <time>2011-10-27T13:19:05.000Z</time>
      </trkpt>
      <trkpt lat="49.92863" lon="1.67257">
        <ele>145</ele>
        <time>2011-10-27T13:19:37.000Z</time>
      </trkpt>
      <trkpt lat="49.9285" lon="1.67255">
        <ele>146</ele>
        <time>2011-10-27T13:19:49.000Z</time>
      </trkpt>
      <trkpt lat="49.92844" lon="1.67254">
        <ele>144</ele>
        <time>2011-10-27T13:19:55.000Z</time>
      </trkpt>
      <trkpt lat="49.92807" lon="1.67254">
        <ele>137</ele>
        <time>2011-10-27T13:20:26.000Z</time>
      </trkpt>
      <trkpt lat="49.92777" lon="1.67252">
        <ele>141</ele>
        <time>2011-10-27T13:20:56.000Z</time>
      </trkpt>
      <trkpt lat="49.92732" lon="1.67245">
        <ele>143</ele>
        <time>2011-10-27T13:21:33.000Z</time>
      </trkpt>
      <trkpt lat="49.92731" lon="1.67245">
        <ele>143</ele>
        <time>2011-10-27T13:21:34.000Z</time>
      </trkpt>
      <trkpt lat="49.92725" lon="1.67245">
        <ele>142</ele>
        <time>2011-10-27T13:21:42.000Z</time>
      </trkpt>
      <trkpt lat="49.92719" lon="1.67249">
        <ele>138</ele>
        <time>2011-10-27T13:21:49.000Z</time>
      </trkpt>
      <trkpt lat="49.9271" lon="1.67253">
        <ele>135</ele>
        <time>2011-10-27T13:22:07.000Z</time>
      </trkpt>
      <trkpt lat="49.92681" lon="1.67261">
        <ele>129</ele>
        <time>2011-10-27T13:22:33.000Z</time>
      </trkpt>
      <trkpt lat="49.92638" lon="1.67283">
        <ele>126</ele>
        <time>2011-10-27T13:23:16.000Z</time>
      </trkpt>
      <trkpt lat="49.92637" lon="1.67284">
        <ele>126</ele>
        <time>2011-10-27T13:23:17.000Z</time>
      </trkpt>
      <trkpt lat="49.92615" lon="1.673">
        <ele>125</ele>
        <time>2011-10-27T13:23:39.000Z</time>
      </trkpt>
      <trkpt lat="49.92606" lon="1.6731">
        <ele>124</ele>
        <time>2011-10-27T13:23:50.000Z</time>
      </trkpt>
      <trkpt lat="49.926" lon="1.67318">
        <ele>119</ele>
        <time>2011-10-27T13:24:03.000Z</time>
      </trkpt>
      <trkpt lat="49.92559" lon="1.67349">
        <ele>116</ele>
        <time>2011-10-27T13:24:43.000Z</time>
      </trkpt>
      <trkpt lat="49.92558" lon="1.67349">
        <ele>116</ele>
        <time>2011-10-27T13:24:44.000Z</time>
      </trkpt>
      <trkpt lat="49.92532" lon="1.67365">
        <ele>118</ele>
        <time>2011-10-27T13:25:07.000Z</time>
      </trkpt>
      <trkpt lat="49.92521" lon="1.6737">
        <ele>118</ele>
        <time>2011-10-27T13:25:17.000Z</time>
      </trkpt>
      <trkpt lat="49.925" lon="1.67384">
        <ele>118</ele>
        <time>2011-10-27T13:25:36.000Z</time>
      </trkpt>
      <trkpt lat="49.92488" lon="1.67383">
        <ele>120</ele>
        <time>2011-10-27T13:25:51.000Z</time>
      </trkpt>
      <trkpt lat="49.92486" lon="1.67392">
        <ele>120</ele>
        <time>2011-10-27T13:26:12.000Z</time>
      </trkpt>
      <trkpt lat="49.92483" lon="1.67404">
        <ele>115</ele>
        <time>2011-10-27T13:26:22.000Z</time>
      </trkpt>
      <trkpt lat="49.92477" lon="1.6741">
        <ele>111</ele>
        <time>2011-10-27T13:26:31.000Z</time>
      </trkpt>
      <trkpt lat="49.92472" lon="1.67407">
        <ele>111</ele>
        <time>2011-10-27T13:26:37.000Z</time>
      </trkpt>
      <trkpt lat="49.92468" lon="1.67402">
        <ele>109</ele>
        <time>2011-10-27T13:26:43.000Z</time>
      </trkpt>
      <trkpt lat="49.92463" lon="1.67395">
        <ele>107</ele>
        <time>2011-10-27T13:26:50.000Z</time>
      </trkpt>
      <trkpt lat="49.92456" lon="1.67388">
        <ele>108</ele>
        <time>2011-10-27T13:27:02.000Z</time>
      </trkpt>
      <trkpt lat="49.9245" lon="1.6738">
        <ele>106</ele>
        <time>2011-10-27T13:27:15.000Z</time>
      </trkpt>
      <trkpt lat="49.92447" lon="1.67364">
        <ele>104</ele>
        <time>2011-10-27T13:27:33.000Z</time>
      </trkpt>
      <trkpt lat="49.92438" lon="1.67316">
        <ele>103</ele>
        <time>2011-10-27T13:28:00.000Z</time>
      </trkpt>
      <trkpt lat="49.92435" lon="1.67299">
        <ele>103</ele>
        <time>2011-10-27T13:28:10.000Z</time>
      </trkpt>
      <trkpt lat="49.92433" lon="1.67286">
        <ele>103</ele>
        <time>2011-10-27T13:28:18.000Z</time>
      </trkpt>
      <trkpt lat="49.92432" lon="1.67276">
        <ele>101</ele>
        <time>2011-10-27T13:28:24.000Z</time>
      </trkpt>
      <trkpt lat="49.92431" lon="1.6726">
        <ele>99</ele>
        <time>2011-10-27T13:28:34.000Z</time>
      </trkpt>
      <trkpt lat="49.92431" lon="1.67252">
        <ele>98</ele>
        <time>2011-10-27T13:28:38.000Z</time>
      </trkpt>
      <trkpt lat="49.92432" lon="1.67237">
        <ele>97</ele>
        <time>2011-10-27T13:28:49.000Z</time>
      </trkpt>
      <trkpt lat="49.92433" lon="1.67228">
        <ele>96</ele>
        <time>2011-10-27T13:28:54.000Z</time>
      </trkpt>
      <trkpt lat="49.92433" lon="1.67219">
        <ele>95</ele>
        <time>2011-10-27T13:29:00.000Z</time>
      </trkpt>
      <trkpt lat="49.92433" lon="1.67199">
        <ele>95</ele>
        <time>2011-10-27T13:29:22.000Z</time>
      </trkpt>
      <trkpt lat="49.92421" lon="1.6715">
        <ele>98</ele>
        <time>2011-10-27T13:29:51.000Z</time>
      </trkpt>
      <trkpt lat="49.92413" lon="1.67118">
        <ele>96</ele>
        <time>2011-10-27T13:30:09.000Z</time>
      </trkpt>
      <trkpt lat="49.92409" lon="1.67101">
        <ele>92</ele>
        <time>2011-10-27T13:30:19.000Z</time>
      </trkpt>
      <trkpt lat="49.92403" lon="1.67072">
        <ele>91</ele>
        <time>2011-10-27T13:30:36.000Z</time>
      </trkpt>
      <trkpt lat="49.92402" lon="1.67058">
        <ele>91</ele>
        <time>2011-10-27T13:30:44.000Z</time>
      </trkpt>
      <trkpt lat="49.92394" lon="1.67022">
        <ele>82</ele>
        <time>2011-10-27T13:31:08.000Z</time>
      </trkpt>
      <trkpt lat="49.92383" lon="1.6697">
        <ele>75</ele>
        <time>2011-10-27T13:31:44.000Z</time>
      </trkpt>
      <trkpt lat="49.9238" lon="1.66958">
        <ele>70</ele>
        <time>2011-10-27T13:32:08.000Z</time>
      </trkpt>
      <trkpt lat="49.92377" lon="1.66951">
        <ele>68</ele>
        <time>2011-10-27T13:32:15.000Z</time>
      </trkpt>
      <trkpt lat="49.92374" lon="1.66942">
        <ele>67</ele>
        <time>2011-10-27T13:32:23.000Z</time>
      </trkpt>
      <trkpt lat="49.92371" lon="1.66922">
        <ele>66</ele>
        <time>2011-10-27T13:32:40.000Z</time>
      </trkpt>
      <trkpt lat="49.92369" lon="1.66914">
        <ele>65</ele>
        <time>2011-10-27T13:32:46.000Z</time>
      </trkpt>
      <trkpt lat="49.92365" lon="1.66898">
        <ele>67</ele>
        <time>2011-10-27T13:32:58.000Z</time>
      </trkpt>
      <trkpt lat="49.9236" lon="1.66882">
        <ele>61</ele>
        <time>2011-10-27T13:33:11.000Z</time>
      </trkpt>
      <trkpt lat="49.92355" lon="1.66873">
        <ele>59</ele>
        <time>2011-10-27T13:33:18.000Z</time>
      </trkpt>
      <trkpt lat="49.92342" lon="1.66848">
        <ele>60</ele>
        <time>2011-10-27T13:33:49.000Z</time>
      </trkpt>
      <trkpt lat="49.92339" lon="1.66842">
        <ele>59</ele>
        <time>2011-10-27T13:33:54.000Z</time>
      </trkpt>
      <trkpt lat="49.92333" lon="1.66832">
        <ele>58</ele>
        <time>2011-10-27T13:34:03.000Z</time>
      </trkpt>
      <trkpt lat="49.92326" lon="1.66817">
        <ele>58</ele>
        <time>2011-10-27T13:34:15.000Z</time>
      </trkpt>
      <trkpt lat="49.92315" lon="1.66787">
        <ele>56</ele>
        <time>2011-10-27T13:34:35.000Z</time>
      </trkpt>
      <trkpt lat="49.92313" lon="1.66779">
        <ele>56</ele>
        <time>2011-10-27T13:34:40.000Z</time>
      </trkpt>
      <trkpt lat="49.92315" lon="1.66757">
        <ele>52</ele>
        <time>2011-10-27T13:34:56.000Z</time>
      </trkpt>
      <trkpt lat="49.92311" lon="1.66751">
        <ele>52</ele>
        <time>2011-10-27T13:35:02.000Z</time>
      </trkpt>
      <trkpt lat="49.92309" lon="1.66746">
        <ele>57</ele>
        <time>2011-10-27T13:35:40.000Z</time>
      </trkpt>
      <trkpt lat="49.92317" lon="1.66755">
        <ele>60</ele>
        <time>2011-10-27T13:35:49.000Z</time>
      </trkpt>
      <trkpt lat="49.92319" lon="1.66768">
        <ele>62</ele>
        <time>2011-10-27T13:35:58.000Z</time>
      </trkpt>
      <trkpt lat="49.92316" lon="1.66772">
        <ele>61</ele>
        <time>2011-10-27T13:36:05.000Z</time>
      </trkpt>
      <trkpt lat="49.92317" lon="1.66762">
        <ele>61</ele>
        <time>2011-10-27T13:36:14.000Z</time>
      </trkpt>
      <trkpt lat="49.92317" lon="1.66745">
        <ele>54</ele>
        <time>2011-10-27T13:36:26.000Z</time>
      </trkpt>
      <trkpt lat="49.92321" lon="1.66725">
        <ele>46</ele>
        <time>2011-10-27T13:36:41.000Z</time>
      </trkpt>
      <trkpt lat="49.92317" lon="1.66696">
        <ele>51</ele>
        <time>2011-10-27T13:36:55.000Z</time>
      </trkpt>
      <trkpt lat="49.92314" lon="1.66659">
        <ele>57</ele>
        <time>2011-10-27T13:37:11.000Z</time>
      </trkpt>
      <trkpt lat="49.92317" lon="1.66641">
        <ele>58</ele>
        <time>2011-10-27T13:37:22.000Z</time>
      </trkpt>
      <trkpt lat="49.92324" lon="1.66632">
        <ele>58</ele>
        <time>2011-10-27T13:37:32.000Z</time>
      </trkpt>
      <trkpt lat="49.92331" lon="1.66625">
        <ele>59</ele>
        <time>2011-10-27T13:37:40.000Z</time>
      </trkpt>
      <trkpt lat="49.92346" lon="1.6661">
        <ele>63</ele>
        <time>2011-10-27T13:37:53.000Z</time>
      </trkpt>
      <trkpt lat="49.92348" lon="1.666">
        <ele>60</ele>
        <time>2011-10-27T13:37:59.000Z</time>
      </trkpt>
      <trkpt lat="49.92354" lon="1.66579">
        <ele>54</ele>
        <time>2011-10-27T13:38:14.000Z</time>
      </trkpt>
      <trkpt lat="49.92368" lon="1.66536">
        <ele>51</ele>
        <time>2011-10-27T13:38:42.000Z</time>
      </trkpt>
      <trkpt lat="49.92376" lon="1.66498">
        <ele>54</ele>
        <time>2011-10-27T13:39:00.000Z</time>
      </trkpt>
      <trkpt lat="49.92378" lon="1.6649">
        <ele>55</ele>
        <time>2011-10-27T13:39:04.000Z</time>
      </trkpt>
      <trkpt lat="49.92382" lon="1.66469">
        <ele>57</ele>
        <time>2011-10-27T13:39:14.000Z</time>
      </trkpt>
      <trkpt lat="49.92383" lon="1.66461">
        <ele>57</ele>
        <time>2011-10-27T13:39:18.000Z</time>
      </trkpt>
      <trkpt lat="49.92387" lon="1.66442">
        <ele>57</ele>
        <time>2011-10-27T13:39:29.000Z</time>
      </trkpt>
      <trkpt lat="49.92393" lon="1.66425">
        <ele>53</ele>
        <time>2011-10-27T13:39:40.000Z</time>
      </trkpt>
      <trkpt lat="49.92392" lon="1.66413">
        <ele>53</ele>
        <time>2011-10-27T13:39:47.000Z</time>
      </trkpt>
      <trkpt lat="49.924" lon="1.66391">
        <ele>51</ele>
        <time>2011-10-27T13:40:01.000Z</time>
      </trkpt>
      <trkpt lat="49.92407" lon="1.66381">
        <ele>51</ele>
        <time>2011-10-27T13:40:09.000Z</time>
      </trkpt>
      <trkpt lat="49.92412" lon="1.66374">
        <ele>53</ele>
        <time>2011-10-27T13:40:14.000Z</time>
      </trkpt>
      <trkpt lat="49.92422" lon="1.66346">
        <ele>58</ele>
        <time>2011-10-27T13:40:31.000Z</time>
      </trkpt>
      <trkpt lat="49.92426" lon="1.6634">
        <ele>58</ele>
        <time>2011-10-27T13:40:35.000Z</time>
      </trkpt>
      <trkpt lat="49.9243" lon="1.66335">
        <ele>58</ele>
        <time>2011-10-27T13:40:40.000Z</time>
      </trkpt>
      <trkpt lat="49.92439" lon="1.66315">
        <ele>53</ele>
        <time>2011-10-27T13:40:54.000Z</time>
      </trkpt>
      <trkpt lat="49.92449" lon="1.6629">
        <ele>53</ele>
        <time>2011-10-27T13:41:10.000Z</time>
      </trkpt>
      <trkpt lat="49.92451" lon="1.66282">
        <ele>53</ele>
        <time>2011-10-27T13:41:14.000Z</time>
      </trkpt>
      <trkpt lat="49.92456" lon="1.66269">
        <ele>53</ele>
        <time>2011-10-27T13:41:22.000Z</time>
      </trkpt>
      <trkpt lat="49.9246" lon="1.66257">
        <ele>54</ele>
        <time>2011-10-27T13:41:29.000Z</time>
      </trkpt>
      <trkpt lat="49.92463" lon="1.66248">
        <ele>53</ele>
        <time>2011-10-27T13:41:34.000Z</time>
      </trkpt>
      <trkpt lat="49.92465" lon="1.66236">
        <ele>52</ele>
        <time>2011-10-27T13:41:41.000Z</time>
      </trkpt>
      <trkpt lat="49.92467" lon="1.66229">
        <ele>52</ele>
        <time>2011-10-27T13:42:00.000Z</time>
      </trkpt>
      <trkpt lat="49.92473" lon="1.66218">
        <ele>51</ele>
        <time>2011-10-27T13:42:09.000Z</time>
      </trkpt>
      <trkpt lat="49.92476" lon="1.6621">
        <ele>51</ele>
        <time>2011-10-27T13:42:15.000Z</time>
      </trkpt>
      <trkpt lat="49.92485" lon="1.66191">
        <ele>50</ele>
        <time>2011-10-27T13:42:28.000Z</time>
      </trkpt>
      <trkpt lat="49.92508" lon="1.66147">
        <ele>53</ele>
        <time>2011-10-27T13:43:00.000Z</time>
      </trkpt>
      <trkpt lat="49.92513" lon="1.66136">
        <ele>54</ele>
        <time>2011-10-27T13:43:08.000Z</time>
      </trkpt>
      <trkpt lat="49.92515" lon="1.6613">
        <ele>54</ele>
        <time>2011-10-27T13:43:12.000Z</time>
      </trkpt>
      <trkpt lat="49.92521" lon="1.66112">
        <ele>53</ele>
        <time>2011-10-27T13:43:23.000Z</time>
      </trkpt>
      <trkpt lat="49.92525" lon="1.66104">
        <ele>54</ele>
        <time>2011-10-27T13:43:29.000Z</time>
      </trkpt>
      <trkpt lat="49.92529" lon="1.66098">
        <ele>56</ele>
        <time>2011-10-27T13:43:33.000Z</time>
      </trkpt>
      <trkpt lat="49.92533" lon="1.66086">
        <ele>56</ele>
        <time>2011-10-27T13:43:40.000Z</time>
      </trkpt>
      <trkpt lat="49.92535" lon="1.66078">
        <ele>55</ele>
        <time>2011-10-27T13:43:44.000Z</time>
      </trkpt>
      <trkpt lat="49.9254" lon="1.66068">
        <ele>55</ele>
        <time>2011-10-27T13:43:50.000Z</time>
      </trkpt>
      <trkpt lat="49.92549" lon="1.66057">
        <ele>53</ele>
        <time>2011-10-27T13:44:01.000Z</time>
      </trkpt>
      <trkpt lat="49.92552" lon="1.6605">
        <ele>52</ele>
        <time>2011-10-27T13:44:06.000Z</time>
      </trkpt>
      <trkpt lat="49.92559" lon="1.66036">
        <ele>51</ele>
        <time>2011-10-27T13:44:15.000Z</time>
      </trkpt>
      <trkpt lat="49.92569" lon="1.66012">
        <ele>49</ele>
        <time>2011-10-27T13:44:34.000Z</time>
      </trkpt>
      <trkpt lat="49.92575" lon="1.6599">
        <ele>47</ele>
        <time>2011-10-27T13:44:55.000Z</time>
      </trkpt>
      <trkpt lat="49.92575" lon="1.65979">
        <ele>51</ele>
        <time>2011-10-27T13:45:10.000Z</time>
      </trkpt>
      <trkpt lat="49.92583" lon="1.6596">
        <ele>49</ele>
        <time>2011-10-27T13:45:24.000Z</time>
      </trkpt>
      <trkpt lat="49.92587" lon="1.65949">
        <ele>52</ele>
        <time>2011-10-27T13:45:32.000Z</time>
      </trkpt>
      <trkpt lat="49.92595" lon="1.6593">
        <ele>53</ele>
        <time>2011-10-27T13:45:44.000Z</time>
      </trkpt>
      <trkpt lat="49.92603" lon="1.65911">
        <ele>50</ele>
        <time>2011-10-27T13:45:55.000Z</time>
      </trkpt>
      <trkpt lat="49.92605" lon="1.65904">
        <ele>50</ele>
        <time>2011-10-27T13:45:59.000Z</time>
      </trkpt>
      <trkpt lat="49.92609" lon="1.6589">
        <ele>50</ele>
        <time>2011-10-27T13:46:08.000Z</time>
      </trkpt>
      <trkpt lat="49.92611" lon="1.65883">
        <ele>49</ele>
        <time>2011-10-27T13:46:13.000Z</time>
      </trkpt>
      <trkpt lat="49.92624" lon="1.65858">
        <ele>46</ele>
        <time>2011-10-27T13:46:29.000Z</time>
      </trkpt>
      <trkpt lat="49.92633" lon="1.6583">
        <ele>47</ele>
        <time>2011-10-27T13:46:44.000Z</time>
      </trkpt>
      <trkpt lat="49.92636" lon="1.65818">
        <ele>50</ele>
        <time>2011-10-27T13:46:50.000Z</time>
      </trkpt>
      <trkpt lat="49.92641" lon="1.65806">
        <ele>51</ele>
        <time>2011-10-27T13:46:57.000Z</time>
      </trkpt>
      <trkpt lat="49.92665" lon="1.65746">
        <ele>47</ele>
        <time>2011-10-27T13:47:35.000Z</time>
      </trkpt>
      <trkpt lat="49.92666" lon="1.65745">
        <ele>47</ele>
        <time>2011-10-27T13:47:36.000Z</time>
      </trkpt>
      <trkpt lat="49.92684" lon="1.65688">
        <ele>47</ele>
        <time>2011-10-27T13:48:09.000Z</time>
      </trkpt>
      <trkpt lat="49.92697" lon="1.65631">
        <ele>49</ele>
        <time>2011-10-27T13:48:37.000Z</time>
      </trkpt>
      <trkpt lat="49.92705" lon="1.656">
        <ele>49</ele>
        <time>2011-10-27T13:48:55.000Z</time>
      </trkpt>
      <trkpt lat="49.92708" lon="1.65589">
        <ele>48</ele>
        <time>2011-10-27T13:49:01.000Z</time>
      </trkpt>
      <trkpt lat="49.92727" lon="1.65523">
        <ele>49</ele>
        <time>2011-10-27T13:49:38.000Z</time>
      </trkpt>
      <trkpt lat="49.92727" lon="1.65521">
        <ele>49</ele>
        <time>2011-10-27T13:49:39.000Z</time>
      </trkpt>
      <trkpt lat="49.92727" lon="1.65519">
        <ele>49</ele>
        <time>2011-10-27T13:49:40.000Z</time>
      </trkpt>
      <trkpt lat="49.92731" lon="1.65505">
        <ele>49</ele>
        <time>2011-10-27T13:49:49.000Z</time>
      </trkpt>
      <trkpt lat="49.92745" lon="1.65468">
        <ele>40</ele>
        <time>2011-10-27T13:50:16.000Z</time>
      </trkpt>
      <trkpt lat="49.92747" lon="1.65447">
        <ele>40</ele>
        <time>2011-10-27T13:50:26.000Z</time>
      </trkpt>
      <trkpt lat="49.9275" lon="1.65435">
        <ele>42</ele>
        <time>2011-10-27T13:50:32.000Z</time>
      </trkpt>
      <trkpt lat="49.92751" lon="1.65426">
        <ele>44</ele>
        <time>2011-10-27T13:50:36.000Z</time>
      </trkpt>
      <trkpt lat="49.92753" lon="1.65401">
        <ele>46</ele>
        <time>2011-10-27T13:50:49.000Z</time>
      </trkpt>
      <trkpt lat="49.92768" lon="1.65334">
        <ele>44</ele>
        <time>2011-10-27T13:51:29.000Z</time>
      </trkpt>
      <trkpt lat="49.92769" lon="1.65332">
        <ele>44</ele>
        <time>2011-10-27T13:51:30.000Z</time>
      </trkpt>
      <trkpt lat="49.92785" lon="1.65265">
        <ele>41</ele>
        <time>2011-10-27T13:52:06.000Z</time>
      </trkpt>
      <trkpt lat="49.92785" lon="1.65263">
        <ele>41</ele>
        <time>2011-10-27T13:52:07.000Z</time>
      </trkpt>
      <trkpt lat="49.92788" lon="1.65238">
        <ele>42</ele>
        <time>2011-10-27T13:52:19.000Z</time>
      </trkpt>
      <trkpt lat="49.92793" lon="1.65199">
        <ele>45</ele>
        <time>2011-10-27T13:52:39.000Z</time>
      </trkpt>
      <trkpt lat="49.92794" lon="1.65129">
        <ele>52</ele>
        <time>2011-10-27T13:53:22.000Z</time>
      </trkpt>
      <trkpt lat="49.92794" lon="1.65127">
        <ele>53</ele>
        <time>2011-10-27T13:53:23.000Z</time>
      </trkpt>
      <trkpt lat="49.92798" lon="1.65096">
        <ele>51</ele>
        <time>2011-10-27T13:53:38.000Z</time>
      </trkpt>
      <trkpt lat="49.92802" lon="1.65083">
        <ele>46</ele>
        <time>2011-10-27T13:53:46.000Z</time>
      </trkpt>
      <trkpt lat="49.92806" lon="1.65046">
        <ele>42</ele>
        <time>2011-10-27T13:54:05.000Z</time>
      </trkpt>
      <trkpt lat="49.92805" lon="1.65033">
        <ele>45</ele>
        <time>2011-10-27T13:54:11.000Z</time>
      </trkpt>
      <trkpt lat="49.92807" lon="1.65015">
        <ele>51</ele>
        <time>2011-10-27T13:54:20.000Z</time>
      </trkpt>
      <trkpt lat="49.92808" lon="1.65005">
        <ele>56</ele>
        <time>2011-10-27T13:54:24.000Z</time>
      </trkpt>
      <trkpt lat="49.92807" lon="1.64983">
        <ele>61</ele>
        <time>2011-10-27T13:54:32.000Z</time>
      </trkpt>
      <trkpt lat="49.92815" lon="1.64962">
        <ele>57</ele>
        <time>2011-10-27T13:54:45.000Z</time>
      </trkpt>
      <trkpt lat="49.9282" lon="1.64952">
        <ele>58</ele>
        <time>2011-10-27T13:54:52.000Z</time>
      </trkpt>
      <trkpt lat="49.92824" lon="1.64939">
        <ele>58</ele>
        <time>2011-10-27T13:55:00.000Z</time>
      </trkpt>
      <trkpt lat="49.9283" lon="1.64924">
        <ele>56</ele>
        <time>2011-10-27T13:55:09.000Z</time>
      </trkpt>
      <trkpt lat="49.92833" lon="1.64917">
        <ele>53</ele>
        <time>2011-10-27T13:55:14.000Z</time>
      </trkpt>
      <trkpt lat="49.92839" lon="1.64907">
        <ele>49</ele>
        <time>2011-10-27T13:55:22.000Z</time>
      </trkpt>
      <trkpt lat="49.92844" lon="1.64896">
        <ele>51</ele>
        <time>2011-10-27T13:55:29.000Z</time>
      </trkpt>
      <trkpt lat="49.92852" lon="1.64874">
        <ele>52</ele>
        <time>2011-10-27T13:55:42.000Z</time>
      </trkpt>
      <trkpt lat="49.9288" lon="1.64837">
        <ele>48</ele>
        <time>2011-10-27T13:56:11.000Z</time>
      </trkpt>
      <trkpt lat="49.92887" lon="1.64814">
        <ele>46</ele>
        <time>2011-10-27T13:56:24.000Z</time>
      </trkpt>
      <trkpt lat="49.92891" lon="1.64803">
        <ele>47</ele>
        <time>2011-10-27T13:56:31.000Z</time>
      </trkpt>
      <trkpt lat="49.92899" lon="1.6478">
        <ele>49</ele>
        <time>2011-10-27T13:56:45.000Z</time>
      </trkpt>
      <trkpt lat="49.92908" lon="1.64757">
        <ele>47</ele>
        <time>2011-10-27T13:57:02.000Z</time>
      </trkpt>
      <trkpt lat="49.92914" lon="1.6474">
        <ele>45</ele>
        <time>2011-10-27T13:57:14.000Z</time>
      </trkpt>
      <trkpt lat="49.92929" lon="1.64674">
        <ele>48</ele>
        <time>2011-10-27T13:57:54.000Z</time>
      </trkpt>
      <trkpt lat="49.92929" lon="1.64672">
        <ele>48</ele>
        <time>2011-10-27T13:57:55.000Z</time>
      </trkpt>
      <trkpt lat="49.92934" lon="1.64656">
        <ele>46</ele>
        <time>2011-10-27T13:58:05.000Z</time>
      </trkpt>
      <trkpt lat="49.92936" lon="1.64648">
        <ele>45</ele>
        <time>2011-10-27T13:58:11.000Z</time>
      </trkpt>
      <trkpt lat="49.92945" lon="1.64612">
        <ele>49</ele>
        <time>2011-10-27T13:58:31.000Z</time>
      </trkpt>
      <trkpt lat="49.92948" lon="1.64605">
        <ele>48</ele>
        <time>2011-10-27T13:58:36.000Z</time>
      </trkpt>
      <trkpt lat="49.92956" lon="1.64582">
        <ele>44</ele>
        <time>2011-10-27T13:59:05.000Z</time>
      </trkpt>
      <trkpt lat="49.92955" lon="1.64569">
        <ele>58</ele>
        <time>2011-10-27T13:59:19.000Z</time>
      </trkpt>
      <trkpt lat="49.92953" lon="1.64562">
        <ele>58</ele>
        <time>2011-10-27T13:59:24.000Z</time>
      </trkpt>
      <trkpt lat="49.92954" lon="1.64552">
        <ele>57</ele>
        <time>2011-10-27T13:59:30.000Z</time>
      </trkpt>
      <trkpt lat="49.92963" lon="1.64536">
        <ele>51</ele>
        <time>2011-10-27T13:59:43.000Z</time>
      </trkpt>
      <trkpt lat="49.92975" lon="1.64523">
        <ele>44</ele>
        <time>2011-10-27T13:59:57.000Z</time>
      </trkpt>
      <trkpt lat="49.9298" lon="1.64512">
        <ele>43</ele>
        <time>2011-10-27T14:00:05.000Z</time>
      </trkpt>
      <trkpt lat="49.92983" lon="1.64504">
        <ele>42</ele>
        <time>2011-10-27T14:00:10.000Z</time>
      </trkpt>
      <trkpt lat="49.92987" lon="1.64493">
        <ele>44</ele>
        <time>2011-10-27T14:00:16.000Z</time>
      </trkpt>
      <trkpt lat="49.92984" lon="1.64487">
        <ele>46</ele>
        <time>2011-10-27T14:00:21.000Z</time>
      </trkpt>
      <trkpt lat="49.92972" lon="1.64472">
        <ele>48</ele>
        <time>2011-10-27T14:00:36.000Z</time>
      </trkpt>
      <trkpt lat="49.92968" lon="1.64468">
        <ele>49</ele>
        <time>2011-10-27T14:00:42.000Z</time>
      </trkpt>
      <trkpt lat="49.92962" lon="1.6447">
        <ele>43</ele>
        <time>2011-10-27T14:00:58.000Z</time>
      </trkpt>
      <trkpt lat="49.92966" lon="1.64462">
        <ele>48</ele>
        <time>2011-10-27T14:02:05.000Z</time>
      </trkpt>
      <trkpt lat="49.92974" lon="1.64443">
        <ele>50</ele>
        <time>2011-10-27T14:02:47.000Z</time>
      </trkpt>
      <trkpt lat="49.92981" lon="1.64436">
        <ele>46</ele>
        <time>2011-10-27T14:02:53.000Z</time>
      </trkpt>
      <trkpt lat="49.92989" lon="1.64439">
        <ele>43</ele>
        <time>2011-10-27T14:03:13.000Z</time>
      </trkpt>
      <trkpt lat="49.92995" lon="1.64437">
        <ele>45</ele>
        <time>2011-10-27T14:03:20.000Z</time>
      </trkpt>
      <trkpt lat="49.92999" lon="1.64431">
        <ele>49</ele>
        <time>2011-10-27T14:03:27.000Z</time>
      </trkpt>
      <trkpt lat="49.93002" lon="1.64423">
        <ele>51</ele>
        <time>2011-10-27T14:03:34.000Z</time>
      </trkpt>
      <trkpt lat="49.93011" lon="1.64406">
        <ele>50</ele>
        <time>2011-10-27T14:03:49.000Z</time>
      </trkpt>
      <trkpt lat="49.93017" lon="1.64394">
        <ele>48</ele>
        <time>2011-10-27T14:03:58.000Z</time>
      </trkpt>
      <trkpt lat="49.93023" lon="1.64385">
        <ele>45</ele>
        <time>2011-10-27T14:04:06.000Z</time>
      </trkpt>
      <trkpt lat="49.93027" lon="1.64378">
        <ele>45</ele>
        <time>2011-10-27T14:04:12.000Z</time>
      </trkpt>
      <trkpt lat="49.93038" lon="1.64348">
        <ele>45</ele>
        <time>2011-10-27T14:04:35.000Z</time>
      </trkpt>
      <trkpt lat="49.93038" lon="1.64338">
        <ele>43</ele>
        <time>2011-10-27T14:04:44.000Z</time>
      </trkpt>
      <trkpt lat="49.93032" lon="1.64329">
        <ele>27</ele>
        <time>2011-10-27T14:05:51.000Z</time>
      </trkpt>
      <trkpt lat="49.93064" lon="1.64262">
        <ele>50</ele>
        <time>2011-10-27T14:06:49.000Z</time>
      </trkpt>
      <trkpt lat="49.93065" lon="1.6426">
        <ele>50</ele>
        <time>2011-10-27T14:06:50.000Z</time>
      </trkpt>
      <trkpt lat="49.93069" lon="1.64245">
        <ele>51</ele>
        <time>2011-10-27T14:07:22.000Z</time>
      </trkpt>
      <trkpt lat="49.93068" lon="1.64252">
        <ele>52</ele>
        <time>2011-10-27T14:07:36.000Z</time>
      </trkpt>
      <trkpt lat="49.93073" lon="1.64248">
        <ele>52</ele>
        <time>2011-10-27T14:07:47.000Z</time>
      </trkpt>
      <trkpt lat="49.93078" lon="1.64245">
        <ele>54</ele>
        <time>2011-10-27T14:07:53.000Z</time>
      </trkpt>
      <trkpt lat="49.93095" lon="1.64249">
        <ele>57</ele>
        <time>2011-10-27T14:08:03.000Z</time>
      </trkpt>
      <trkpt lat="49.93108" lon="1.64251">
        <ele>58</ele>
        <time>2011-10-27T14:08:12.000Z</time>
      </trkpt>
      <trkpt lat="49.93112" lon="1.64247">
        <ele>58</ele>
        <time>2011-10-27T14:08:16.000Z</time>
      </trkpt>
      <trkpt lat="49.93123" lon="1.64233">
        <ele>54</ele>
        <time>2011-10-27T14:08:30.000Z</time>
      </trkpt>
      <trkpt lat="49.9313" lon="1.64224">
        <ele>50</ele>
        <time>2011-10-27T14:08:39.000Z</time>
      </trkpt>
      <trkpt lat="49.93132" lon="1.64216">
        <ele>48</ele>
        <time>2011-10-27T14:08:45.000Z</time>
      </trkpt>
      <trkpt lat="49.93133" lon="1.64199">
        <ele>44</ele>
        <time>2011-10-27T14:08:57.000Z</time>
      </trkpt>
      <trkpt lat="49.9313" lon="1.64193">
        <ele>43</ele>
        <time>2011-10-27T14:09:06.000Z</time>
      </trkpt>
      <trkpt lat="49.93133" lon="1.64184">
        <ele>43</ele>
        <time>2011-10-27T14:09:14.000Z</time>
      </trkpt>
      <trkpt lat="49.93137" lon="1.64176">
        <ele>44</ele>
        <time>2011-10-27T14:09:20.000Z</time>
      </trkpt>
      <trkpt lat="49.93143" lon="1.64168">
        <ele>45</ele>
        <time>2011-10-27T14:09:35.000Z</time>
      </trkpt>
      <trkpt lat="49.93146" lon="1.64158">
        <ele>49</ele>
        <time>2011-10-27T14:10:03.000Z</time>
      </trkpt>
      <trkpt lat="49.93149" lon="1.64153">
        <ele>50</ele>
        <time>2011-10-27T14:10:39.000Z</time>
      </trkpt>
      <trkpt lat="49.93158" lon="1.64136">
        <ele>47</ele>
        <time>2011-10-27T14:10:54.000Z</time>
      </trkpt>
      <trkpt lat="49.93158" lon="1.64128">
        <ele>49</ele>
        <time>2011-10-27T14:11:06.000Z</time>
      </trkpt>
      <trkpt lat="49.93161" lon="1.64121">
        <ele>49</ele>
        <time>2011-10-27T14:11:13.000Z</time>
      </trkpt>
      <trkpt lat="49.93168" lon="1.641">
        <ele>49</ele>
        <time>2011-10-27T14:11:25.000Z</time>
      </trkpt>
      <trkpt lat="49.93173" lon="1.64086">
        <ele>48</ele>
        <time>2011-10-27T14:11:33.000Z</time>
      </trkpt>
      <trkpt lat="49.93194" lon="1.64034">
        <ele>49</ele>
        <time>2011-10-27T14:12:11.000Z</time>
      </trkpt>
      <trkpt lat="49.93204" lon="1.64015">
        <ele>52</ele>
        <time>2011-10-27T14:12:24.000Z</time>
      </trkpt>
      <trkpt lat="49.93209" lon="1.63993">
        <ele>51</ele>
        <time>2011-10-27T14:12:37.000Z</time>
      </trkpt>
      <trkpt lat="49.93207" lon="1.63954">
        <ele>48</ele>
        <time>2011-10-27T14:12:59.000Z</time>
      </trkpt>
      <trkpt lat="49.93207" lon="1.63946">
        <ele>46</ele>
        <time>2011-10-27T14:13:18.000Z</time>
      </trkpt>
      <trkpt lat="49.9321" lon="1.63939">
        <ele>47</ele>
        <time>2011-10-27T14:13:24.000Z</time>
      </trkpt>
      <trkpt lat="49.93228" lon="1.63874">
        <ele>47</ele>
        <time>2011-10-27T14:14:01.000Z</time>
      </trkpt>
      <trkpt lat="49.93228" lon="1.63872">
        <ele>47</ele>
        <time>2011-10-27T14:14:02.000Z</time>
      </trkpt>
      <trkpt lat="49.93231" lon="1.63857">
        <ele>48</ele>
        <time>2011-10-27T14:14:10.000Z</time>
      </trkpt>
      <trkpt lat="49.93237" lon="1.63845">
        <ele>45</ele>
        <time>2011-10-27T14:14:18.000Z</time>
      </trkpt>
      <trkpt lat="49.93239" lon="1.63838">
        <ele>44</ele>
        <time>2011-10-27T14:14:22.000Z</time>
      </trkpt>
      <trkpt lat="49.93247" lon="1.63816">
        <ele>43</ele>
        <time>2011-10-27T14:14:34.000Z</time>
      </trkpt>
      <trkpt lat="49.93262" lon="1.63769">
        <ele>49</ele>
        <time>2011-10-27T14:15:00.000Z</time>
      </trkpt>
      <trkpt lat="49.9327" lon="1.63748">
        <ele>50</ele>
        <time>2011-10-27T14:15:13.000Z</time>
      </trkpt>
      <trkpt lat="49.93274" lon="1.63742">
        <ele>49</ele>
        <time>2011-10-27T14:15:17.000Z</time>
      </trkpt>
      <trkpt lat="49.93277" lon="1.63735">
        <ele>49</ele>
        <time>2011-10-27T14:15:21.000Z</time>
      </trkpt>
      <trkpt lat="49.93279" lon="1.63722">
        <ele>48</ele>
        <time>2011-10-27T14:15:28.000Z</time>
      </trkpt>
      <trkpt lat="49.93281" lon="1.6371">
        <ele>48</ele>
        <time>2011-10-27T14:15:34.000Z</time>
      </trkpt>
      <trkpt lat="49.93287" lon="1.63671">
        <ele>49</ele>
        <time>2011-10-27T14:15:54.000Z</time>
      </trkpt>
      <trkpt lat="49.93305" lon="1.63606">
        <ele>43</ele>
        <time>2011-10-27T14:16:31.000Z</time>
      </trkpt>
      <trkpt lat="49.93306" lon="1.63604">
        <ele>43</ele>
        <time>2011-10-27T14:16:32.000Z</time>
      </trkpt>
      <trkpt lat="49.93315" lon="1.6356">
        <ele>44</ele>
        <time>2011-10-27T14:16:58.000Z</time>
      </trkpt>
      <trkpt lat="49.93316" lon="1.63541">
        <ele>44</ele>
        <time>2011-10-27T14:17:08.000Z</time>
      </trkpt>
      <trkpt lat="49.93316" lon="1.63532">
        <ele>43</ele>
        <time>2011-10-27T14:17:13.000Z</time>
      </trkpt>
      <trkpt lat="49.93317" lon="1.63514">
        <ele>45</ele>
        <time>2011-10-27T14:17:22.000Z</time>
      </trkpt>
      <trkpt lat="49.93324" lon="1.63493">
        <ele>46</ele>
        <time>2011-10-27T14:17:34.000Z</time>
      </trkpt>
      <trkpt lat="49.93329" lon="1.6347">
        <ele>45</ele>
        <time>2011-10-27T14:17:50.000Z</time>
      </trkpt>
      <trkpt lat="49.93336" lon="1.63454">
        <ele>45</ele>
        <time>2011-10-27T14:18:01.000Z</time>
      </trkpt>
      <trkpt lat="49.9334" lon="1.6345">
        <ele>47</ele>
        <time>2011-10-27T14:18:08.000Z</time>
      </trkpt>
      <trkpt lat="49.93362" lon="1.63455">
        <ele>48</ele>
        <time>2011-10-27T14:18:28.000Z</time>
      </trkpt>
      <trkpt lat="49.9337" lon="1.63451">
        <ele>49</ele>
        <time>2011-10-27T14:18:36.000Z</time>
      </trkpt>
      <trkpt lat="49.93377" lon="1.63444">
        <ele>51</ele>
        <time>2011-10-27T14:18:44.000Z</time>
      </trkpt>
      <trkpt lat="49.9339" lon="1.6343">
        <ele>51</ele>
        <time>2011-10-27T14:19:00.000Z</time>
      </trkpt>
      <trkpt lat="49.93414" lon="1.63403">
        <ele>50</ele>
        <time>2011-10-27T14:19:27.000Z</time>
      </trkpt>
      <trkpt lat="49.93428" lon="1.63387">
        <ele>55</ele>
        <time>2011-10-27T14:19:44.000Z</time>
      </trkpt>
      <trkpt lat="49.93432" lon="1.63383">
        <ele>51</ele>
        <time>2011-10-27T14:19:49.000Z</time>
      </trkpt>
      <trkpt lat="49.93441" lon="1.63377">
        <ele>48</ele>
        <time>2011-10-27T14:19:57.000Z</time>
      </trkpt>
      <trkpt lat="49.93456" lon="1.63362">
        <ele>50</ele>
        <time>2011-10-27T14:20:10.000Z</time>
      </trkpt>
      <trkpt lat="49.93496" lon="1.63329">
        <ele>47</ele>
        <time>2011-10-27T14:20:51.000Z</time>
      </trkpt>
      <trkpt lat="49.93496" lon="1.63328">
        <ele>47</ele>
        <time>2011-10-27T14:20:52.000Z</time>
      </trkpt>
      <trkpt lat="49.93508" lon="1.63317">
        <ele>51</ele>
        <time>2011-10-27T14:21:05.000Z</time>
      </trkpt>
      <trkpt lat="49.9354" lon="1.63265">
        <ele>48</ele>
        <time>2011-10-27T14:21:45.000Z</time>
      </trkpt>
      <trkpt lat="49.9354" lon="1.63264">
        <ele>48</ele>
        <time>2011-10-27T14:21:46.000Z</time>
      </trkpt>
      <trkpt lat="49.93544" lon="1.6325">
        <ele>46</ele>
        <time>2011-10-27T14:21:54.000Z</time>
      </trkpt>
      <trkpt lat="49.9355" lon="1.63242">
        <ele>45</ele>
        <time>2011-10-27T14:22:00.000Z</time>
      </trkpt>
      <trkpt lat="49.93553" lon="1.63237">
        <ele>45</ele>
        <time>2011-10-27T14:22:04.000Z</time>
      </trkpt>
      <trkpt lat="49.93567" lon="1.63209">
        <ele>48</ele>
        <time>2011-10-27T14:22:23.000Z</time>
      </trkpt>
      <trkpt lat="49.93573" lon="1.63201">
        <ele>47</ele>
        <time>2011-10-27T14:22:36.000Z</time>
      </trkpt>
      <trkpt lat="49.93576" lon="1.63193">
        <ele>45</ele>
        <time>2011-10-27T14:22:47.000Z</time>
      </trkpt>
      <trkpt lat="49.93575" lon="1.63186">
        <ele>45</ele>
        <time>2011-10-27T14:22:52.000Z</time>
      </trkpt>
      <trkpt lat="49.93574" lon="1.63177">
        <ele>47</ele>
        <time>2011-10-27T14:22:58.000Z</time>
      </trkpt>
      <trkpt lat="49.9357" lon="1.63169">
        <ele>49</ele>
        <time>2011-10-27T14:23:03.000Z</time>
      </trkpt>
      <trkpt lat="49.93549" lon="1.63142">
        <ele>47</ele>
        <time>2011-10-27T14:23:30.000Z</time>
      </trkpt>
      <trkpt lat="49.93544" lon="1.63131">
        <ele>47</ele>
        <time>2011-10-27T14:23:40.000Z</time>
      </trkpt>
      <trkpt lat="49.93545" lon="1.63122">
        <ele>45</ele>
        <time>2011-10-27T14:23:47.000Z</time>
      </trkpt>
      <trkpt lat="49.93534" lon="1.63111">
        <ele>45</ele>
        <time>2011-10-27T14:23:57.000Z</time>
      </trkpt>
      <trkpt lat="49.93534" lon="1.63104">
        <ele>46</ele>
        <time>2011-10-27T14:24:01.000Z</time>
      </trkpt>
      <trkpt lat="49.93542" lon="1.63085">
        <ele>42</ele>
        <time>2011-10-27T14:24:13.000Z</time>
      </trkpt>
      <trkpt lat="49.93559" lon="1.63048">
        <ele>37</ele>
        <time>2011-10-27T14:24:38.000Z</time>
      </trkpt>
      <trkpt lat="49.93564" lon="1.63043">
        <ele>40</ele>
        <time>2011-10-27T14:24:45.000Z</time>
      </trkpt>
      <trkpt lat="49.93569" lon="1.63045">
        <ele>48</ele>
        <time>2011-10-27T14:24:55.000Z</time>
      </trkpt>
      <trkpt lat="49.93576" lon="1.63046">
        <ele>50</ele>
        <time>2011-10-27T14:25:01.000Z</time>
      </trkpt>
      <trkpt lat="49.93583" lon="1.63048">
        <ele>51</ele>
        <time>2011-10-27T14:25:08.000Z</time>
      </trkpt>
      <trkpt lat="49.93592" lon="1.63044">
        <ele>50</ele>
        <time>2011-10-27T14:25:15.000Z</time>
      </trkpt>
      <trkpt lat="49.93599" lon="1.63041">
        <ele>48</ele>
        <time>2011-10-27T14:25:22.000Z</time>
      </trkpt>
      <trkpt lat="49.93613" lon="1.63027">
        <ele>46</ele>
        <time>2011-10-27T14:25:35.000Z</time>
      </trkpt>
      <trkpt lat="49.93624" lon="1.63013">
        <ele>45</ele>
        <time>2011-10-27T14:25:47.000Z</time>
      </trkpt>
      <trkpt lat="49.93631" lon="1.63">
        <ele>46</ele>
        <time>2011-10-27T14:25:56.000Z</time>
      </trkpt>
      <trkpt lat="49.9364" lon="1.62985">
        <ele>46</ele>
        <time>2011-10-27T14:26:07.000Z</time>
      </trkpt>
      <trkpt lat="49.93653" lon="1.62967">
        <ele>45</ele>
        <time>2011-10-27T14:26:22.000Z</time>
      </trkpt>
      <trkpt lat="49.93659" lon="1.62956">
        <ele>44</ele>
        <time>2011-10-27T14:26:30.000Z</time>
      </trkpt>
      <trkpt lat="49.93665" lon="1.62948">
        <ele>43</ele>
        <time>2011-10-27T14:26:38.000Z</time>
      </trkpt>
      <trkpt lat="49.9367" lon="1.62935">
        <ele>41</ele>
        <time>2011-10-27T14:27:08.000Z</time>
      </trkpt>
      <trkpt lat="49.9367" lon="1.62932">
        <ele>42</ele>
        <time>2011-10-27T14:27:26.000Z</time>
      </trkpt>
    </trkseg>
  </trk>
</gpx>